<?xml version="1.0" encoding="UTF-8" standalone="no" ?>
<gpx xmlns="http://www.topografix.com/GPX/1/1" xmlns:xsi="http://www.w3.org/2001/XMLSchema-instance" xsi:schemaLocation="http://www.topografix.com/GPX/1/1 http://www.topografix.com/GPX/1/1/gpx.xsd" version="1.1" creator="VisuGPX - https://www.visugpx.com">
  <metadata>
    <name>Chars-Magny-Chars - Réel</name>
    <desc><![CDATA[Chars-Magny-Chars - Réel
HW - HP - SdV]]></desc>
  </metadata>
  <trk>
    <name><![CDATA[ACTIVE LOG- 16 MAI 2011 14-22-Chars-Magny-Chars]]></name>
    <trkseg>
      <trkpt lat="49.1648" lon="1.93641">
        <ele>63.003338</ele>
        <time>2011-05-16T12:22:28Z</time>
      </trkpt>
      <trkpt lat="49.16456" lon="1.93652">
        <ele>63</ele>
        <time>2011-05-16T12:27:00Z</time>
      </trkpt>
      <trkpt lat="49.16413" lon="1.93657">
        <ele>63</ele>
        <time>2011-05-16T12:27:14Z</time>
      </trkpt>
      <trkpt lat="49.16365" lon="1.9367">
        <ele>63</ele>
        <time>2011-05-16T12:27:26Z</time>
      </trkpt>
      <trkpt lat="49.16318" lon="1.93673">
        <ele>63</ele>
        <time>2011-05-16T12:27:39Z</time>
      </trkpt>
      <trkpt lat="49.1628" lon="1.93642">
        <ele>63.047386</ele>
        <time>2011-05-16T12:27:53Z</time>
      </trkpt>
      <trkpt lat="49.16266" lon="1.93575">
        <ele>65.837502</ele>
        <time>2011-05-16T12:28:04Z</time>
      </trkpt>
      <trkpt lat="49.1626" lon="1.93532">
        <ele>69.785004</ele>
        <time>2011-05-16T12:28:27Z</time>
      </trkpt>
      <trkpt lat="49.16301" lon="1.93495">
        <ele>71.709999</ele>
        <time>2011-05-16T12:28:48Z</time>
      </trkpt>
      <trkpt lat="49.16346" lon="1.9347">
        <ele>73.135994</ele>
        <time>2011-05-16T12:29:08Z</time>
      </trkpt>
      <trkpt lat="49.16388" lon="1.93446">
        <ele>75.245003</ele>
        <time>2011-05-16T12:29:35Z</time>
      </trkpt>
      <trkpt lat="49.16437" lon="1.93433">
        <ele>77.827225</ele>
        <time>2011-05-16T12:30:08Z</time>
      </trkpt>
      <trkpt lat="49.16485" lon="1.93431">
        <ele>79.592499</ele>
        <time>2011-05-16T12:30:35Z</time>
      </trkpt>
      <trkpt lat="49.16531" lon="1.9342">
        <ele>83.261749</ele>
        <time>2011-05-16T12:31:01Z</time>
      </trkpt>
      <trkpt lat="49.16573" lon="1.93399">
        <ele>87.571251</ele>
        <time>2011-05-16T12:31:25Z</time>
      </trkpt>
      <trkpt lat="49.16615" lon="1.93369">
        <ele>90.850899</ele>
        <time>2011-05-16T12:31:46Z</time>
      </trkpt>
      <trkpt lat="49.16656" lon="1.93339">
        <ele>91.779999</ele>
        <time>2011-05-16T12:32:04Z</time>
      </trkpt>
      <trkpt lat="49.16702" lon="1.93322">
        <ele>91.637497</ele>
        <time>2011-05-16T12:32:22Z</time>
      </trkpt>
      <trkpt lat="49.16747" lon="1.93325">
        <ele>89.207504</ele>
        <time>2011-05-16T12:39:06Z</time>
      </trkpt>
      <trkpt lat="49.16792" lon="1.93323">
        <ele>85.509697</ele>
        <time>2011-05-16T12:39:17Z</time>
      </trkpt>
      <trkpt lat="49.16841" lon="1.93289">
        <ele>80.568863</ele>
        <time>2011-05-16T12:39:28Z</time>
      </trkpt>
      <trkpt lat="49.16885" lon="1.93263">
        <ele>76.393745</ele>
        <time>2011-05-16T12:39:36Z</time>
      </trkpt>
      <trkpt lat="49.1693" lon="1.93243">
        <ele>73.53875</ele>
        <time>2011-05-16T12:39:42Z</time>
      </trkpt>
      <trkpt lat="49.16985" lon="1.93244">
        <ele>72.84375</ele>
        <time>2011-05-16T12:39:48Z</time>
      </trkpt>
      <trkpt lat="49.17028" lon="1.93262">
        <ele>72.723373</ele>
        <time>2011-05-16T12:39:54Z</time>
      </trkpt>
      <trkpt lat="49.17075" lon="1.93287">
        <ele>71.481766</ele>
        <time>2011-05-16T12:40:01Z</time>
      </trkpt>
      <trkpt lat="49.17119" lon="1.93313">
        <ele>69.631172</ele>
        <time>2011-05-16T12:40:09Z</time>
      </trkpt>
      <trkpt lat="49.17164" lon="1.93285">
        <ele>72.288002</ele>
        <time>2011-05-16T12:40:20Z</time>
      </trkpt>
      <trkpt lat="49.1721" lon="1.93251">
        <ele>73.187248</ele>
        <time>2011-05-16T12:40:30Z</time>
      </trkpt>
      <trkpt lat="49.17258" lon="1.93235">
        <ele>71.727936</ele>
        <time>2011-05-16T12:40:40Z</time>
      </trkpt>
      <trkpt lat="49.17302" lon="1.93196">
        <ele>74.853653</ele>
        <time>2011-05-16T12:40:48Z</time>
      </trkpt>
      <trkpt lat="49.17352" lon="1.93179">
        <ele>76.419998</ele>
        <time>2011-05-16T12:40:59Z</time>
      </trkpt>
      <trkpt lat="49.17405" lon="1.9318">
        <ele>73.966248</ele>
        <time>2011-05-16T12:41:10Z</time>
      </trkpt>
      <trkpt lat="49.1746" lon="1.93167">
        <ele>70.128197</ele>
        <time>2011-05-16T12:41:23Z</time>
      </trkpt>
      <trkpt lat="49.17503" lon="1.93122">
        <ele>67.938629</ele>
        <time>2011-05-16T12:41:36Z</time>
      </trkpt>
      <trkpt lat="49.17551" lon="1.93092">
        <ele>65.902496</ele>
        <time>2011-05-16T12:41:50Z</time>
      </trkpt>
      <trkpt lat="49.17597" lon="1.93118">
        <ele>65.629929</ele>
        <time>2011-05-16T12:42:03Z</time>
      </trkpt>
      <trkpt lat="49.1764" lon="1.93142">
        <ele>66.163315</ele>
        <time>2011-05-16T12:42:17Z</time>
      </trkpt>
      <trkpt lat="49.17689" lon="1.93154">
        <ele>68.266426</ele>
        <time>2011-05-16T12:42:31Z</time>
      </trkpt>
      <trkpt lat="49.17732" lon="1.93141">
        <ele>70.136436</ele>
        <time>2011-05-16T12:42:48Z</time>
      </trkpt>
      <trkpt lat="49.17772" lon="1.93181">
        <ele>73.198204</ele>
        <time>2011-05-16T12:43:09Z</time>
      </trkpt>
      <trkpt lat="49.17826" lon="1.93222">
        <ele>74.294075</ele>
        <time>2011-05-16T12:43:35Z</time>
      </trkpt>
      <trkpt lat="49.17878" lon="1.93248">
        <ele>76.014999</ele>
        <time>2011-05-16T12:43:59Z</time>
      </trkpt>
      <trkpt lat="49.17927" lon="1.93277">
        <ele>80.723</ele>
        <time>2011-05-16T12:44:24Z</time>
      </trkpt>
      <trkpt lat="49.17979" lon="1.9328">
        <ele>83.212418</ele>
        <time>2011-05-16T12:44:41Z</time>
      </trkpt>
      <trkpt lat="49.18029" lon="1.93282">
        <ele>86.790901</ele>
        <time>2011-05-16T12:44:59Z</time>
      </trkpt>
      <trkpt lat="49.18087" lon="1.93306">
        <ele>91.451225</ele>
        <time>2011-05-16T12:45:18Z</time>
      </trkpt>
      <trkpt lat="49.18139" lon="1.93313">
        <ele>94.410004</ele>
        <time>2011-05-16T12:45:39Z</time>
      </trkpt>
      <trkpt lat="49.18192" lon="1.9332">
        <ele>96.942497</ele>
        <time>2011-05-16T12:46:06Z</time>
      </trkpt>
      <trkpt lat="49.18253" lon="1.93327">
        <ele>99.894997</ele>
        <time>2011-05-16T12:46:30Z</time>
      </trkpt>
      <trkpt lat="49.18306" lon="1.9334">
        <ele>103.647888</ele>
        <time>2011-05-16T12:46:54Z</time>
      </trkpt>
      <trkpt lat="49.18361" lon="1.93351">
        <ele>106.455002</ele>
        <time>2011-05-16T12:47:15Z</time>
      </trkpt>
      <trkpt lat="49.18415" lon="1.93369">
        <ele>109.236801</ele>
        <time>2011-05-16T12:47:36Z</time>
      </trkpt>
      <trkpt lat="49.1847" lon="1.93396">
        <ele>111.297501</ele>
        <time>2011-05-16T12:47:54Z</time>
      </trkpt>
      <trkpt lat="49.18523" lon="1.93413">
        <ele>111.983635</ele>
        <time>2011-05-16T12:48:10Z</time>
      </trkpt>
      <trkpt lat="49.18583" lon="1.93426">
        <ele>112.855598</ele>
        <time>2011-05-16T12:48:23Z</time>
      </trkpt>
      <trkpt lat="49.18639" lon="1.93434">
        <ele>112.217499</ele>
        <time>2011-05-16T12:48:38Z</time>
      </trkpt>
      <trkpt lat="49.18692" lon="1.9344">
        <ele>112.316254</ele>
        <time>2011-05-16T12:48:51Z</time>
      </trkpt>
      <trkpt lat="49.18751" lon="1.93452">
        <ele>112.489998</ele>
        <time>2011-05-16T12:49:02Z</time>
      </trkpt>
      <trkpt lat="49.18808" lon="1.93459">
        <ele>112.596252</ele>
        <time>2011-05-16T12:49:13Z</time>
      </trkpt>
      <trkpt lat="49.18858" lon="1.93459">
        <ele>112.722939</ele>
        <time>2011-05-16T12:49:25Z</time>
      </trkpt>
      <trkpt lat="49.1891" lon="1.93468">
        <ele>113</ele>
        <time>2011-05-16T12:49:36Z</time>
      </trkpt>
      <trkpt lat="49.18961" lon="1.93483">
        <ele>113</ele>
        <time>2011-05-16T12:49:47Z</time>
      </trkpt>
      <trkpt lat="49.19012" lon="1.93493">
        <ele>113.08548</ele>
        <time>2011-05-16T12:50:01Z</time>
      </trkpt>
      <trkpt lat="49.19071" lon="1.93493">
        <ele>112.105659</ele>
        <time>2011-05-16T12:50:11Z</time>
      </trkpt>
      <trkpt lat="49.19121" lon="1.93497">
        <ele>110.827629</ele>
        <time>2011-05-16T12:50:19Z</time>
      </trkpt>
      <trkpt lat="49.19171" lon="1.93498">
        <ele>109.271248</ele>
        <time>2011-05-16T12:50:26Z</time>
      </trkpt>
      <trkpt lat="49.19223" lon="1.93493">
        <ele>106.682236</ele>
        <time>2011-05-16T12:50:33Z</time>
      </trkpt>
      <trkpt lat="49.19269" lon="1.93498">
        <ele>104.120003</ele>
        <time>2011-05-16T12:50:39Z</time>
      </trkpt>
      <trkpt lat="49.19313" lon="1.93517">
        <ele>101.769997</ele>
        <time>2011-05-16T12:50:45Z</time>
      </trkpt>
      <trkpt lat="49.19366" lon="1.93571">
        <ele>99.415001</ele>
        <time>2011-05-16T12:50:52Z</time>
      </trkpt>
      <trkpt lat="49.19381" lon="1.93525">
        <ele>99.065002</ele>
        <time>2011-05-16T12:51:02Z</time>
      </trkpt>
      <trkpt lat="49.19382" lon="1.93454">
        <ele>98.652397</ele>
        <time>2011-05-16T12:51:16Z</time>
      </trkpt>
      <trkpt lat="49.19392" lon="1.93388">
        <ele>98.637497</ele>
        <time>2011-05-16T12:51:28Z</time>
      </trkpt>
      <trkpt lat="49.19405" lon="1.93319">
        <ele>100.793747</ele>
        <time>2011-05-16T12:51:42Z</time>
      </trkpt>
      <trkpt lat="49.19406" lon="1.93249">
        <ele>102.297501</ele>
        <time>2011-05-16T12:51:58Z</time>
      </trkpt>
      <trkpt lat="49.19422" lon="1.93185">
        <ele>105.671928</ele>
        <time>2011-05-16T12:52:16Z</time>
      </trkpt>
      <trkpt lat="49.19456" lon="1.93136">
        <ele>108.931717</ele>
        <time>2011-05-16T12:52:37Z</time>
      </trkpt>
      <trkpt lat="49.19487" lon="1.93083">
        <ele>111.462502</ele>
        <time>2011-05-16T12:53:00Z</time>
      </trkpt>
      <trkpt lat="49.19518" lon="1.9303">
        <ele>114.183311</ele>
        <time>2011-05-16T12:53:24Z</time>
      </trkpt>
      <trkpt lat="49.19537" lon="1.92968">
        <ele>119.175003</ele>
        <time>2011-05-16T12:53:50Z</time>
      </trkpt>
      <trkpt lat="49.19536" lon="1.929">
        <ele>122.364326</ele>
        <time>2011-05-16T12:54:14Z</time>
      </trkpt>
      <trkpt lat="49.19533" lon="1.92831">
        <ele>124.017502</ele>
        <time>2011-05-16T12:54:33Z</time>
      </trkpt>
      <trkpt lat="49.19534" lon="1.92762">
        <ele>125.093246</ele>
        <time>2011-05-16T12:54:52Z</time>
      </trkpt>
      <trkpt lat="49.19514" lon="1.92703">
        <ele>125.083702</ele>
        <time>2011-05-16T12:55:07Z</time>
      </trkpt>
      <trkpt lat="49.19496" lon="1.9264">
        <ele>123.924461</ele>
        <time>2011-05-16T12:55:18Z</time>
      </trkpt>
      <trkpt lat="49.19457" lon="1.92615">
        <ele>119.997391</ele>
        <time>2011-05-16T12:55:29Z</time>
      </trkpt>
      <trkpt lat="49.1941" lon="1.92562">
        <ele>115.092499</ele>
        <time>2011-05-16T12:55:36Z</time>
      </trkpt>
      <trkpt lat="49.19369" lon="1.92533">
        <ele>111.677254</ele>
        <time>2011-05-16T12:55:43Z</time>
      </trkpt>
      <trkpt lat="49.19326" lon="1.925">
        <ele>108.479752</ele>
        <time>2011-05-16T12:55:55Z</time>
      </trkpt>
      <trkpt lat="49.19281" lon="1.92466">
        <ele>105.752373</ele>
        <time>2011-05-16T12:56:06Z</time>
      </trkpt>
      <trkpt lat="49.19235" lon="1.92431">
        <ele>102.435974</ele>
        <time>2011-05-16T12:56:17Z</time>
      </trkpt>
      <trkpt lat="49.19193" lon="1.92391">
        <ele>99.505577</ele>
        <time>2011-05-16T12:56:26Z</time>
      </trkpt>
      <trkpt lat="49.19157" lon="1.92348">
        <ele>96.977936</ele>
        <time>2011-05-16T12:56:35Z</time>
      </trkpt>
      <trkpt lat="49.19116" lon="1.92303">
        <ele>92.187813</ele>
        <time>2011-05-16T12:56:43Z</time>
      </trkpt>
      <trkpt lat="49.19077" lon="1.9225">
        <ele>88.385002</ele>
        <time>2011-05-16T12:56:51Z</time>
      </trkpt>
      <trkpt lat="49.19034" lon="1.92206">
        <ele>81.990753</ele>
        <time>2011-05-16T12:57:00Z</time>
      </trkpt>
      <trkpt lat="49.18989" lon="1.92167">
        <ele>76.610764</ele>
        <time>2011-05-16T12:57:11Z</time>
      </trkpt>
      <trkpt lat="49.18959" lon="1.92112">
        <ele>76.3946</ele>
        <time>2011-05-16T12:57:21Z</time>
      </trkpt>
      <trkpt lat="49.18966" lon="1.92033">
        <ele>83.386253</ele>
        <time>2011-05-16T12:57:33Z</time>
      </trkpt>
      <trkpt lat="49.18961" lon="1.91955">
        <ele>82.702499</ele>
        <time>2011-05-16T12:57:49Z</time>
      </trkpt>
      <trkpt lat="49.18967" lon="1.91887">
        <ele>80.788628</ele>
        <time>2011-05-16T12:58:02Z</time>
      </trkpt>
      <trkpt lat="49.18998" lon="1.91832">
        <ele>81.839523</ele>
        <time>2011-05-16T12:58:16Z</time>
      </trkpt>
      <trkpt lat="49.19029" lon="1.91768">
        <ele>76.686859</ele>
        <time>2011-05-16T12:58:28Z</time>
      </trkpt>
      <trkpt lat="49.19059" lon="1.91712">
        <ele>74.712151</ele>
        <time>2011-05-16T12:58:35Z</time>
      </trkpt>
      <trkpt lat="49.19033" lon="1.91654">
        <ele>73.095879</ele>
        <time>2011-05-16T12:58:42Z</time>
      </trkpt>
      <trkpt lat="49.19002" lon="1.91605">
        <ele>73</ele>
        <time>2011-05-16T12:58:50Z</time>
      </trkpt>
      <trkpt lat="49.18967" lon="1.91559">
        <ele>74.150749</ele>
        <time>2011-05-16T12:59:02Z</time>
      </trkpt>
      <trkpt lat="49.18987" lon="1.9151">
        <ele>75.820374</ele>
        <time>2011-05-16T12:59:26Z</time>
      </trkpt>
      <trkpt lat="49.19013" lon="1.91447">
        <ele>74.807251</ele>
        <time>2011-05-16T12:59:52Z</time>
      </trkpt>
      <trkpt lat="49.19024" lon="1.9137">
        <ele>78.24115</ele>
        <time>2011-05-16T13:00:17Z</time>
      </trkpt>
      <trkpt lat="49.19031" lon="1.91297">
        <ele>82.526672</ele>
        <time>2011-05-16T13:00:44Z</time>
      </trkpt>
      <trkpt lat="49.19032" lon="1.9121">
        <ele>88.014198</ele>
        <time>2011-05-16T13:01:10Z</time>
      </trkpt>
      <trkpt lat="49.19047" lon="1.9114">
        <ele>89.600563</ele>
        <time>2011-05-16T13:01:36Z</time>
      </trkpt>
      <trkpt lat="49.1906" lon="1.91069">
        <ele>94.844688</ele>
        <time>2011-05-16T13:02:01Z</time>
      </trkpt>
      <trkpt lat="49.19065" lon="1.90997">
        <ele>96.909149</ele>
        <time>2011-05-16T13:02:20Z</time>
      </trkpt>
      <trkpt lat="49.19059" lon="1.9093">
        <ele>98.089996</ele>
        <time>2011-05-16T13:02:36Z</time>
      </trkpt>
      <trkpt lat="49.19049" lon="1.90859">
        <ele>98.279984</ele>
        <time>2011-05-16T13:02:50Z</time>
      </trkpt>
      <trkpt lat="49.19043" lon="1.90789">
        <ele>97.699684</ele>
        <time>2011-05-16T13:03:02Z</time>
      </trkpt>
      <trkpt lat="49.19034" lon="1.9071">
        <ele>96.696251</ele>
        <time>2011-05-16T13:03:11Z</time>
      </trkpt>
      <trkpt lat="49.19026" lon="1.90641">
        <ele>96.519997</ele>
        <time>2011-05-16T13:03:22Z</time>
      </trkpt>
      <trkpt lat="49.19018" lon="1.9057">
        <ele>97.386253</ele>
        <time>2011-05-16T13:03:34Z</time>
      </trkpt>
      <trkpt lat="49.19009" lon="1.90497">
        <ele>98.754364</ele>
        <time>2011-05-16T13:03:47Z</time>
      </trkpt>
      <trkpt lat="49.19006" lon="1.90424">
        <ele>99.831253</ele>
        <time>2011-05-16T13:03:59Z</time>
      </trkpt>
      <trkpt lat="49.19008" lon="1.9035">
        <ele>100.125</ele>
        <time>2011-05-16T13:04:11Z</time>
      </trkpt>
      <trkpt lat="49.19012" lon="1.90276">
        <ele>100.035004</ele>
        <time>2011-05-16T13:04:23Z</time>
      </trkpt>
      <trkpt lat="49.19017" lon="1.90206">
        <ele>99.987343</ele>
        <time>2011-05-16T13:04:35Z</time>
      </trkpt>
      <trkpt lat="49.19021" lon="1.90135">
        <ele>100</ele>
        <time>2011-05-16T13:04:46Z</time>
      </trkpt>
      <trkpt lat="49.19027" lon="1.90065">
        <ele>100.617546</ele>
        <time>2011-05-16T13:04:57Z</time>
      </trkpt>
      <trkpt lat="49.19032" lon="1.8999">
        <ele>100.990967</ele>
        <time>2011-05-16T13:05:09Z</time>
      </trkpt>
      <trkpt lat="49.19035" lon="1.89921">
        <ele>101</ele>
        <time>2011-05-16T13:05:21Z</time>
      </trkpt>
      <trkpt lat="49.1904" lon="1.89847">
        <ele>102.067497</ele>
        <time>2011-05-16T13:05:33Z</time>
      </trkpt>
      <trkpt lat="49.19047" lon="1.89774">
        <ele>103.099785</ele>
        <time>2011-05-16T13:05:45Z</time>
      </trkpt>
      <trkpt lat="49.19052" lon="1.89704">
        <ele>104.057503</ele>
        <time>2011-05-16T13:05:57Z</time>
      </trkpt>
      <trkpt lat="49.19057" lon="1.89631">
        <ele>105.004349</ele>
        <time>2011-05-16T13:06:10Z</time>
      </trkpt>
      <trkpt lat="49.19063" lon="1.89558">
        <ele>105.384399</ele>
        <time>2011-05-16T13:06:22Z</time>
      </trkpt>
      <trkpt lat="49.1906" lon="1.89487">
        <ele>106.288635</ele>
        <time>2011-05-16T13:06:35Z</time>
      </trkpt>
      <trkpt lat="49.19047" lon="1.8942">
        <ele>107</ele>
        <time>2011-05-16T13:06:48Z</time>
      </trkpt>
      <trkpt lat="49.19036" lon="1.89347">
        <ele>107</ele>
        <time>2011-05-16T13:07:01Z</time>
      </trkpt>
      <trkpt lat="49.19032" lon="1.89275">
        <ele>107</ele>
        <time>2011-05-16T13:07:14Z</time>
      </trkpt>
      <trkpt lat="49.19025" lon="1.89204">
        <ele>107</ele>
        <time>2011-05-16T13:07:27Z</time>
      </trkpt>
      <trkpt lat="49.1902" lon="1.89131">
        <ele>107</ele>
        <time>2011-05-16T13:07:39Z</time>
      </trkpt>
      <trkpt lat="49.19013" lon="1.8906">
        <ele>107</ele>
        <time>2011-05-16T13:07:52Z</time>
      </trkpt>
      <trkpt lat="49.19007" lon="1.88987">
        <ele>107</ele>
        <time>2011-05-16T13:08:05Z</time>
      </trkpt>
      <trkpt lat="49.19001" lon="1.88914">
        <ele>107</ele>
        <time>2011-05-16T13:08:15Z</time>
      </trkpt>
      <trkpt lat="49.18987" lon="1.88848">
        <ele>107</ele>
        <time>2011-05-16T13:08:25Z</time>
      </trkpt>
      <trkpt lat="49.18966" lon="1.88787">
        <ele>107</ele>
        <time>2011-05-16T13:08:36Z</time>
      </trkpt>
      <trkpt lat="49.18977" lon="1.88717">
        <ele>107</ele>
        <time>2011-05-16T13:08:48Z</time>
      </trkpt>
      <trkpt lat="49.18947" lon="1.8867">
        <ele>107</ele>
        <time>2011-05-16T13:09:00Z</time>
      </trkpt>
      <trkpt lat="49.18907" lon="1.88647">
        <ele>107.239998</ele>
        <time>2011-05-16T13:09:11Z</time>
      </trkpt>
      <trkpt lat="49.18877" lon="1.88593">
        <ele>107.935951</ele>
        <time>2011-05-16T13:09:22Z</time>
      </trkpt>
      <trkpt lat="49.18837" lon="1.88554">
        <ele>108</ele>
        <time>2011-05-16T13:09:34Z</time>
      </trkpt>
      <trkpt lat="49.18799" lon="1.88516">
        <ele>108.33075</ele>
        <time>2011-05-16T13:09:46Z</time>
      </trkpt>
      <trkpt lat="49.18822" lon="1.88462">
        <ele>108.110001</ele>
        <time>2011-05-16T13:14:27Z</time>
      </trkpt>
      <trkpt lat="49.18854" lon="1.88409">
        <ele>108.030228</ele>
        <time>2011-05-16T13:14:43Z</time>
      </trkpt>
      <trkpt lat="49.18883" lon="1.88356">
        <ele>108</ele>
        <time>2011-05-16T13:14:58Z</time>
      </trkpt>
      <trkpt lat="49.18914" lon="1.88302">
        <ele>108.028122</ele>
        <time>2011-05-16T13:15:11Z</time>
      </trkpt>
      <trkpt lat="49.18948" lon="1.88253">
        <ele>108.34375</ele>
        <time>2011-05-16T13:15:23Z</time>
      </trkpt>
      <trkpt lat="49.18983" lon="1.88201">
        <ele>109</ele>
        <time>2011-05-16T13:15:39Z</time>
      </trkpt>
      <trkpt lat="49.19014" lon="1.8815">
        <ele>109</ele>
        <time>2011-05-16T13:15:53Z</time>
      </trkpt>
      <trkpt lat="49.19046" lon="1.88103">
        <ele>109.516251</ele>
        <time>2011-05-16T13:16:06Z</time>
      </trkpt>
      <trkpt lat="49.19011" lon="1.88063">
        <ele>110</ele>
        <time>2011-05-16T13:16:21Z</time>
      </trkpt>
      <trkpt lat="49.18976" lon="1.88008">
        <ele>110</ele>
        <time>2011-05-16T13:16:35Z</time>
      </trkpt>
      <trkpt lat="49.18941" lon="1.87965">
        <ele>110.728851</ele>
        <time>2011-05-16T13:16:49Z</time>
      </trkpt>
      <trkpt lat="49.18905" lon="1.87925">
        <ele>111.028877</ele>
        <time>2011-05-16T13:17:02Z</time>
      </trkpt>
      <trkpt lat="49.18863" lon="1.87895">
        <ele>111.577499</ele>
        <time>2011-05-16T13:17:14Z</time>
      </trkpt>
      <trkpt lat="49.18819" lon="1.8788">
        <ele>111.798752</ele>
        <time>2011-05-16T13:17:26Z</time>
      </trkpt>
      <trkpt lat="49.18772" lon="1.87867">
        <ele>111.997498</ele>
        <time>2011-05-16T13:17:39Z</time>
      </trkpt>
      <trkpt lat="49.18726" lon="1.87856">
        <ele>111.821762</ele>
        <time>2011-05-16T13:17:51Z</time>
      </trkpt>
      <trkpt lat="49.18699" lon="1.87804">
        <ele>111.933998</ele>
        <time>2011-05-16T13:18:06Z</time>
      </trkpt>
      <trkpt lat="49.18688" lon="1.87733">
        <ele>112</ele>
        <time>2011-05-16T13:18:21Z</time>
      </trkpt>
      <trkpt lat="49.18678" lon="1.87662">
        <ele>113.001251</ele>
        <time>2011-05-16T13:18:36Z</time>
      </trkpt>
      <trkpt lat="49.18669" lon="1.87592">
        <ele>114.008347</ele>
        <time>2011-05-16T13:18:51Z</time>
      </trkpt>
      <trkpt lat="49.18666" lon="1.87519">
        <ele>114.599998</ele>
        <time>2011-05-16T13:19:06Z</time>
      </trkpt>
      <trkpt lat="49.18663" lon="1.87449">
        <ele>115.565002</ele>
        <time>2011-05-16T13:19:21Z</time>
      </trkpt>
      <trkpt lat="49.18661" lon="1.8738">
        <ele>115.655426</ele>
        <time>2011-05-16T13:19:34Z</time>
      </trkpt>
      <trkpt lat="49.18655" lon="1.87306">
        <ele>116.142479</ele>
        <time>2011-05-16T13:19:48Z</time>
      </trkpt>
      <trkpt lat="49.18645" lon="1.87235">
        <ele>117.177498</ele>
        <time>2011-05-16T13:20:01Z</time>
      </trkpt>
      <trkpt lat="49.18634" lon="1.87166">
        <ele>118.388</ele>
        <time>2011-05-16T13:20:14Z</time>
      </trkpt>
      <trkpt lat="49.18622" lon="1.87095">
        <ele>119.129372</ele>
        <time>2011-05-16T13:20:29Z</time>
      </trkpt>
      <trkpt lat="49.18612" lon="1.87024">
        <ele>119.768852</ele>
        <time>2011-05-16T13:20:42Z</time>
      </trkpt>
      <trkpt lat="49.18603" lon="1.86953">
        <ele>120.307762</ele>
        <time>2011-05-16T13:20:56Z</time>
      </trkpt>
      <trkpt lat="49.18595" lon="1.86881">
        <ele>121.01413</ele>
        <time>2011-05-16T13:21:10Z</time>
      </trkpt>
      <trkpt lat="49.18587" lon="1.86809">
        <ele>121.560997</ele>
        <time>2011-05-16T13:21:25Z</time>
      </trkpt>
      <trkpt lat="49.18577" lon="1.8674">
        <ele>122.464996</ele>
        <time>2011-05-16T13:21:39Z</time>
      </trkpt>
      <trkpt lat="49.18565" lon="1.86673">
        <ele>123.303604</ele>
        <time>2011-05-16T13:21:55Z</time>
      </trkpt>
      <trkpt lat="49.18552" lon="1.86606">
        <ele>123.982414</ele>
        <time>2011-05-16T13:22:11Z</time>
      </trkpt>
      <trkpt lat="49.18536" lon="1.86536">
        <ele>124.618965</ele>
        <time>2011-05-16T13:22:26Z</time>
      </trkpt>
      <trkpt lat="49.18523" lon="1.86468">
        <ele>125.432503</ele>
        <time>2011-05-16T13:22:39Z</time>
      </trkpt>
      <trkpt lat="49.18524" lon="1.86393">
        <ele>126</ele>
        <time>2011-05-16T13:22:52Z</time>
      </trkpt>
      <trkpt lat="49.18493" lon="1.86354">
        <ele>126.344933</ele>
        <time>2011-05-16T13:23:05Z</time>
      </trkpt>
      <trkpt lat="49.18448" lon="1.86334">
        <ele>126.842987</ele>
        <time>2011-05-16T13:23:19Z</time>
      </trkpt>
      <trkpt lat="49.18407" lon="1.86301">
        <ele>126.883751</ele>
        <time>2011-05-16T13:23:32Z</time>
      </trkpt>
      <trkpt lat="49.18369" lon="1.86257">
        <ele>128.074997</ele>
        <time>2011-05-16T13:23:46Z</time>
      </trkpt>
      <trkpt lat="49.18332" lon="1.86214">
        <ele>129.322495</ele>
        <time>2011-05-16T13:23:59Z</time>
      </trkpt>
      <trkpt lat="49.18295" lon="1.86171">
        <ele>130.587494</ele>
        <time>2011-05-16T13:24:15Z</time>
      </trkpt>
      <trkpt lat="49.18258" lon="1.86128">
        <ele>132.297501</ele>
        <time>2011-05-16T13:24:33Z</time>
      </trkpt>
      <trkpt lat="49.18223" lon="1.86084">
        <ele>133.904999</ele>
        <time>2011-05-16T13:24:51Z</time>
      </trkpt>
      <trkpt lat="49.18187" lon="1.86037">
        <ele>134.447495</ele>
        <time>2011-05-16T13:25:07Z</time>
      </trkpt>
      <trkpt lat="49.18152" lon="1.85989">
        <ele>134.796249</ele>
        <time>2011-05-16T13:25:22Z</time>
      </trkpt>
      <trkpt lat="49.18116" lon="1.85947">
        <ele>134.975006</ele>
        <time>2011-05-16T13:25:36Z</time>
      </trkpt>
      <trkpt lat="49.18081" lon="1.859">
        <ele>134.772507</ele>
        <time>2011-05-16T13:25:51Z</time>
      </trkpt>
      <trkpt lat="49.18071" lon="1.85836">
        <ele>134.800003</ele>
        <time>2011-05-16T13:26:06Z</time>
      </trkpt>
      <trkpt lat="49.18115" lon="1.858">
        <ele>136.759995</ele>
        <time>2011-05-16T13:26:24Z</time>
      </trkpt>
      <trkpt lat="49.1816" lon="1.8578">
        <ele>138.559555</ele>
        <time>2011-05-16T13:26:41Z</time>
      </trkpt>
      <trkpt lat="49.18206" lon="1.85761">
        <ele>139.606247</ele>
        <time>2011-05-16T13:26:57Z</time>
      </trkpt>
      <trkpt lat="49.18249" lon="1.85744">
        <ele>140.707504</ele>
        <time>2011-05-16T13:27:12Z</time>
      </trkpt>
      <trkpt lat="49.18293" lon="1.85725">
        <ele>141.800858</ele>
        <time>2011-05-16T13:27:28Z</time>
      </trkpt>
      <trkpt lat="49.18339" lon="1.85711">
        <ele>142</ele>
        <time>2011-05-16T13:27:44Z</time>
      </trkpt>
      <trkpt lat="49.18383" lon="1.85712">
        <ele>142</ele>
        <time>2011-05-16T13:27:55Z</time>
      </trkpt>
      <trkpt lat="49.18427" lon="1.85694">
        <ele>141.675003</ele>
        <time>2011-05-16T13:28:05Z</time>
      </trkpt>
      <trkpt lat="49.18467" lon="1.85639">
        <ele>140.468719</ele>
        <time>2011-05-16T13:28:13Z</time>
      </trkpt>
      <trkpt lat="49.18498" lon="1.85585">
        <ele>140.686188</ele>
        <time>2011-05-16T13:28:23Z</time>
      </trkpt>
      <trkpt lat="49.18533" lon="1.85535">
        <ele>141.31929</ele>
        <time>2011-05-16T13:28:37Z</time>
      </trkpt>
      <trkpt lat="49.18567" lon="1.85485">
        <ele>141.218796</ele>
        <time>2011-05-16T13:28:49Z</time>
      </trkpt>
      <trkpt lat="49.18611" lon="1.85447">
        <ele>139.184937</ele>
        <time>2011-05-16T13:29:00Z</time>
      </trkpt>
      <trkpt lat="49.18684" lon="1.85412">
        <ele>136.662491</ele>
        <time>2011-05-16T13:29:09Z</time>
      </trkpt>
      <trkpt lat="49.1868" lon="1.85383">
        <ele>136.529999</ele>
        <time>2011-05-16T13:29:36Z</time>
      </trkpt>
      <trkpt lat="49.18705" lon="1.85337">
        <ele>136.173126</ele>
        <time>2011-05-16T13:29:52Z</time>
      </trkpt>
      <trkpt lat="49.18745" lon="1.85301">
        <ele>137.622055</ele>
        <time>2011-05-16T13:30:06Z</time>
      </trkpt>
      <trkpt lat="49.18789" lon="1.85266">
        <ele>139.387619</ele>
        <time>2011-05-16T13:30:20Z</time>
      </trkpt>
      <trkpt lat="49.1883" lon="1.85233">
        <ele>140.748749</ele>
        <time>2011-05-16T13:30:34Z</time>
      </trkpt>
      <trkpt lat="49.18869" lon="1.85198">
        <ele>142.143753</ele>
        <time>2011-05-16T13:30:49Z</time>
      </trkpt>
      <trkpt lat="49.18907" lon="1.8516">
        <ele>143.526245</ele>
        <time>2011-05-16T13:31:04Z</time>
      </trkpt>
      <trkpt lat="49.18945" lon="1.85122">
        <ele>144.914993</ele>
        <time>2011-05-16T13:31:20Z</time>
      </trkpt>
      <trkpt lat="49.18984" lon="1.85084">
        <ele>146.999725</ele>
        <time>2011-05-16T13:31:37Z</time>
      </trkpt>
      <trkpt lat="49.19022" lon="1.85047">
        <ele>149.406403</ele>
        <time>2011-05-16T13:31:55Z</time>
      </trkpt>
      <trkpt lat="49.19061" lon="1.85009">
        <ele>152.297501</ele>
        <time>2011-05-16T13:32:12Z</time>
      </trkpt>
      <trkpt lat="49.19093" lon="1.84967">
        <ele>154.894394</ele>
        <time>2011-05-16T13:32:32Z</time>
      </trkpt>
      <trkpt lat="49.19117" lon="1.84906">
        <ele>158.805008</ele>
        <time>2011-05-16T13:32:56Z</time>
      </trkpt>
      <trkpt lat="49.19133" lon="1.84841">
        <ele>161.185944</ele>
        <time>2011-05-16T13:33:17Z</time>
      </trkpt>
      <trkpt lat="49.19147" lon="1.84777">
        <ele>163.517502</ele>
        <time>2011-05-16T13:33:38Z</time>
      </trkpt>
      <trkpt lat="49.19161" lon="1.84711">
        <ele>166.686249</ele>
        <time>2011-05-16T13:33:56Z</time>
      </trkpt>
      <trkpt lat="49.19176" lon="1.84645">
        <ele>170.595581</ele>
        <time>2011-05-16T13:34:16Z</time>
      </trkpt>
      <trkpt lat="49.19189" lon="1.84577">
        <ele>172.993744</ele>
        <time>2011-05-16T13:34:38Z</time>
      </trkpt>
      <trkpt lat="49.192" lon="1.84508">
        <ele>176.118073</ele>
        <time>2011-05-16T13:34:59Z</time>
      </trkpt>
      <trkpt lat="49.19214" lon="1.84442">
        <ele>178.714996</ele>
        <time>2011-05-16T13:35:19Z</time>
      </trkpt>
      <trkpt lat="49.19223" lon="1.84376">
        <ele>182.090378</ele>
        <time>2011-05-16T13:35:41Z</time>
      </trkpt>
      <trkpt lat="49.19184" lon="1.84344">
        <ele>184.488174</ele>
        <time>2011-05-16T13:36:01Z</time>
      </trkpt>
      <trkpt lat="49.19157" lon="1.84282">
        <ele>185.835175</ele>
        <time>2011-05-16T13:36:14Z</time>
      </trkpt>
      <trkpt lat="49.19133" lon="1.84227">
        <ele>185.548325</ele>
        <time>2011-05-16T13:36:27Z</time>
      </trkpt>
      <trkpt lat="49.19109" lon="1.84171">
        <ele>182.974854</ele>
        <time>2011-05-16T13:36:39Z</time>
      </trkpt>
      <trkpt lat="49.19078" lon="1.84107">
        <ele>177.156906</ele>
        <time>2011-05-16T13:36:47Z</time>
      </trkpt>
      <trkpt lat="49.19061" lon="1.84053">
        <ele>173.372253</ele>
        <time>2011-05-16T13:36:58Z</time>
      </trkpt>
      <trkpt lat="49.19044" lon="1.83993">
        <ele>169.956955</ele>
        <time>2011-05-16T13:37:08Z</time>
      </trkpt>
      <trkpt lat="49.18996" lon="1.83924">
        <ele>168.551468</ele>
        <time>2011-05-16T13:37:32Z</time>
      </trkpt>
      <trkpt lat="49.18962" lon="1.83851">
        <ele>166.369995</ele>
        <time>2011-05-16T13:37:46Z</time>
      </trkpt>
      <trkpt lat="49.18952" lon="1.83764">
        <ele>166.632614</ele>
        <time>2011-05-16T13:38:06Z</time>
      </trkpt>
      <trkpt lat="49.1893" lon="1.83685">
        <ele>165.649506</ele>
        <time>2011-05-16T13:38:20Z</time>
      </trkpt>
      <trkpt lat="49.18925" lon="1.83598">
        <ele>166.304993</ele>
        <time>2011-05-16T13:38:36Z</time>
      </trkpt>
      <trkpt lat="49.18928" lon="1.8351">
        <ele>166.996628</ele>
        <time>2011-05-16T13:38:58Z</time>
      </trkpt>
      <trkpt lat="49.18904" lon="1.83447">
        <ele>163.858505</ele>
        <time>2011-05-16T13:39:11Z</time>
      </trkpt>
      <trkpt lat="49.18877" lon="1.83378">
        <ele>160.079666</ele>
        <time>2011-05-16T13:39:25Z</time>
      </trkpt>
      <trkpt lat="49.18861" lon="1.83309">
        <ele>156.308762</ele>
        <time>2011-05-16T13:40:08Z</time>
      </trkpt>
      <trkpt lat="49.18825" lon="1.83265">
        <ele>151.671051</ele>
        <time>2011-05-16T13:40:18Z</time>
      </trkpt>
      <trkpt lat="49.18786" lon="1.83218">
        <ele>146.754684</ele>
        <time>2011-05-16T13:40:26Z</time>
      </trkpt>
      <trkpt lat="49.1875" lon="1.83181">
        <ele>143.046921</ele>
        <time>2011-05-16T13:40:44Z</time>
      </trkpt>
      <trkpt lat="49.18721" lon="1.83216">
        <ele>142.635941</ele>
        <time>2011-05-16T13:41:45Z</time>
      </trkpt>
      <trkpt lat="49.18672" lon="1.83188">
        <ele>136.554291</ele>
        <time>2011-05-16T13:42:00Z</time>
      </trkpt>
      <trkpt lat="49.1863" lon="1.83184">
        <ele>133.300598</ele>
        <time>2011-05-16T13:42:11Z</time>
      </trkpt>
      <trkpt lat="49.18622" lon="1.83125">
        <ele>132.529999</ele>
        <time>2011-05-16T13:42:26Z</time>
      </trkpt>
      <trkpt lat="49.1862" lon="1.83053">
        <ele>131.366257</ele>
        <time>2011-05-16T13:42:38Z</time>
      </trkpt>
      <trkpt lat="49.18648" lon="1.82995">
        <ele>131.858307</ele>
        <time>2011-05-16T13:42:53Z</time>
      </trkpt>
      <trkpt lat="49.18679" lon="1.82941">
        <ele>132.491241</ele>
        <time>2011-05-16T13:43:06Z</time>
      </trkpt>
      <trkpt lat="49.18693" lon="1.82877">
        <ele>131.835648</ele>
        <time>2011-05-16T13:43:23Z</time>
      </trkpt>
      <trkpt lat="49.18722" lon="1.82837">
        <ele>132.911255</ele>
        <time>2011-05-16T13:45:02Z</time>
      </trkpt>
      <trkpt lat="49.18723" lon="1.82812">
        <ele>132.623749</ele>
        <time>2011-05-16T13:46:02Z</time>
      </trkpt>
      <trkpt lat="49.18745" lon="1.82753">
        <ele>132.119995</ele>
        <time>2011-05-16T13:46:22Z</time>
      </trkpt>
      <trkpt lat="49.18765" lon="1.82694">
        <ele>132.25</ele>
        <time>2011-05-16T13:46:39Z</time>
      </trkpt>
      <trkpt lat="49.18788" lon="1.82631">
        <ele>132.919998</ele>
        <time>2011-05-16T13:46:55Z</time>
      </trkpt>
      <trkpt lat="49.18816" lon="1.82575">
        <ele>134.03241</ele>
        <time>2011-05-16T13:47:10Z</time>
      </trkpt>
      <trkpt lat="49.1883" lon="1.82509">
        <ele>134.351257</ele>
        <time>2011-05-16T13:47:27Z</time>
      </trkpt>
      <trkpt lat="49.18836" lon="1.82435">
        <ele>135.952499</ele>
        <time>2011-05-16T13:47:44Z</time>
      </trkpt>
      <trkpt lat="49.18837" lon="1.82355">
        <ele>138.038467</ele>
        <time>2011-05-16T13:48:02Z</time>
      </trkpt>
      <trkpt lat="49.18844" lon="1.82282">
        <ele>139.431656</ele>
        <time>2011-05-16T13:48:22Z</time>
      </trkpt>
      <trkpt lat="49.18867" lon="1.82218">
        <ele>142.004074</ele>
        <time>2011-05-16T13:48:42Z</time>
      </trkpt>
      <trkpt lat="49.18896" lon="1.82157">
        <ele>144.552002</ele>
        <time>2011-05-16T13:49:01Z</time>
      </trkpt>
      <trkpt lat="49.18921" lon="1.82099">
        <ele>146.309998</ele>
        <time>2011-05-16T13:49:23Z</time>
      </trkpt>
      <trkpt lat="49.18952" lon="1.82043">
        <ele>147.710007</ele>
        <time>2011-05-16T13:49:41Z</time>
      </trkpt>
      <trkpt lat="49.18983" lon="1.81988">
        <ele>149.149994</ele>
        <time>2011-05-16T13:49:59Z</time>
      </trkpt>
      <trkpt lat="49.19004" lon="1.81929">
        <ele>151.152496</ele>
        <time>2011-05-16T13:50:19Z</time>
      </trkpt>
      <trkpt lat="49.19026" lon="1.81865">
        <ele>153.037918</ele>
        <time>2011-05-16T13:50:37Z</time>
      </trkpt>
      <trkpt lat="49.19046" lon="1.81798">
        <ele>154.164825</ele>
        <time>2011-05-16T13:50:52Z</time>
      </trkpt>
      <trkpt lat="49.19068" lon="1.81738">
        <ele>154.940903</ele>
        <time>2011-05-16T13:51:08Z</time>
      </trkpt>
      <trkpt lat="49.19092" lon="1.81677">
        <ele>156.5</ele>
        <time>2011-05-16T13:51:23Z</time>
      </trkpt>
      <trkpt lat="49.19116" lon="1.81612">
        <ele>157.902496</ele>
        <time>2011-05-16T13:51:40Z</time>
      </trkpt>
      <trkpt lat="49.19133" lon="1.81546">
        <ele>158.236481</ele>
        <time>2011-05-16T13:51:57Z</time>
      </trkpt>
      <trkpt lat="49.19137" lon="1.81474">
        <ele>157.839996</ele>
        <time>2011-05-16T13:52:12Z</time>
      </trkpt>
      <trkpt lat="49.19163" lon="1.81414">
        <ele>157.813171</ele>
        <time>2011-05-16T13:52:25Z</time>
      </trkpt>
      <trkpt lat="49.19203" lon="1.81368">
        <ele>155.738754</ele>
        <time>2011-05-16T13:52:37Z</time>
      </trkpt>
      <trkpt lat="49.19233" lon="1.81314">
        <ele>152.91156</ele>
        <time>2011-05-16T13:52:53Z</time>
      </trkpt>
      <trkpt lat="49.19276" lon="1.81276">
        <ele>150.855957</ele>
        <time>2011-05-16T13:53:07Z</time>
      </trkpt>
      <trkpt lat="49.1931" lon="1.81225">
        <ele>152.129868</ele>
        <time>2011-05-16T13:53:21Z</time>
      </trkpt>
      <trkpt lat="49.19344" lon="1.81175">
        <ele>154.287827</ele>
        <time>2011-05-16T13:53:36Z</time>
      </trkpt>
      <trkpt lat="49.19381" lon="1.81134">
        <ele>154.476288</ele>
        <time>2011-05-16T13:53:49Z</time>
      </trkpt>
      <trkpt lat="49.19421" lon="1.81079">
        <ele>150.410004</ele>
        <time>2011-05-16T13:53:58Z</time>
      </trkpt>
      <trkpt lat="49.19456" lon="1.81032">
        <ele>150.053207</ele>
        <time>2011-05-16T13:54:08Z</time>
      </trkpt>
      <trkpt lat="49.19492" lon="1.80983">
        <ele>151.621246</ele>
        <time>2011-05-16T13:54:21Z</time>
      </trkpt>
      <trkpt lat="49.19527" lon="1.80935">
        <ele>152.494171</ele>
        <time>2011-05-16T13:54:33Z</time>
      </trkpt>
      <trkpt lat="49.19564" lon="1.80887">
        <ele>154.089996</ele>
        <time>2011-05-16T13:54:45Z</time>
      </trkpt>
      <trkpt lat="49.19603" lon="1.80845">
        <ele>154.647507</ele>
        <time>2011-05-16T13:54:56Z</time>
      </trkpt>
      <trkpt lat="49.19649" lon="1.80817">
        <ele>154.004242</ele>
        <time>2011-05-16T13:55:06Z</time>
      </trkpt>
      <trkpt lat="49.19687" lon="1.80777">
        <ele>152.077408</ele>
        <time>2011-05-16T13:55:15Z</time>
      </trkpt>
      <trkpt lat="49.19707" lon="1.80714">
        <ele>149.950302</ele>
        <time>2011-05-16T13:55:25Z</time>
      </trkpt>
      <trkpt lat="49.19726" lon="1.80651">
        <ele>147.644653</ele>
        <time>2011-05-16T13:55:39Z</time>
      </trkpt>
      <trkpt lat="49.19744" lon="1.80588">
        <ele>145.309998</ele>
        <time>2011-05-16T13:56:17Z</time>
      </trkpt>
      <trkpt lat="49.19768" lon="1.80523">
        <ele>141.735001</ele>
        <time>2011-05-16T13:56:29Z</time>
      </trkpt>
      <trkpt lat="49.19794" lon="1.80464">
        <ele>138.657501</ele>
        <time>2011-05-16T13:56:40Z</time>
      </trkpt>
      <trkpt lat="49.19784" lon="1.80397">
        <ele>138.137329</ele>
        <time>2011-05-16T13:56:55Z</time>
      </trkpt>
      <trkpt lat="49.19768" lon="1.80329">
        <ele>137.23999</ele>
        <time>2011-05-16T13:57:08Z</time>
      </trkpt>
      <trkpt lat="49.19739" lon="1.80278">
        <ele>135.301254</ele>
        <time>2011-05-16T13:57:57Z</time>
      </trkpt>
      <trkpt lat="49.19709" lon="1.80226">
        <ele>133.002502</ele>
        <time>2011-05-16T13:58:07Z</time>
      </trkpt>
      <trkpt lat="49.19675" lon="1.80176">
        <ele>130.869995</ele>
        <time>2011-05-16T13:58:15Z</time>
      </trkpt>
      <trkpt lat="49.19639" lon="1.8013">
        <ele>129.505005</ele>
        <time>2011-05-16T13:58:22Z</time>
      </trkpt>
      <trkpt lat="49.19597" lon="1.80086">
        <ele>128.606247</ele>
        <time>2011-05-16T13:58:30Z</time>
      </trkpt>
      <trkpt lat="49.19574" lon="1.80024">
        <ele>127.397499</ele>
        <time>2011-05-16T13:58:39Z</time>
      </trkpt>
      <trkpt lat="49.19537" lon="1.79975">
        <ele>125.974998</ele>
        <time>2011-05-16T13:58:51Z</time>
      </trkpt>
      <trkpt lat="49.19503" lon="1.79927">
        <ele>125.466248</ele>
        <time>2011-05-16T13:59:01Z</time>
      </trkpt>
      <trkpt lat="49.19468" lon="1.79879">
        <ele>126.306923</ele>
        <time>2011-05-16T13:59:14Z</time>
      </trkpt>
      <trkpt lat="49.19433" lon="1.79836">
        <ele>129.206879</ele>
        <time>2011-05-16T13:59:29Z</time>
      </trkpt>
      <trkpt lat="49.19396" lon="1.79793">
        <ele>131.089996</ele>
        <time>2011-05-16T13:59:46Z</time>
      </trkpt>
      <trkpt lat="49.19363" lon="1.79751">
        <ele>132.156342</ele>
        <time>2011-05-16T14:00:05Z</time>
      </trkpt>
      <trkpt lat="49.19326" lon="1.79707">
        <ele>132.163147</ele>
        <time>2011-05-16T14:00:23Z</time>
      </trkpt>
      <trkpt lat="49.19284" lon="1.7968">
        <ele>131.559998</ele>
        <time>2011-05-16T14:00:40Z</time>
      </trkpt>
      <trkpt lat="49.1924" lon="1.79667">
        <ele>130.735657</ele>
        <time>2011-05-16T14:00:56Z</time>
      </trkpt>
      <trkpt lat="49.19194" lon="1.79653">
        <ele>129.705002</ele>
        <time>2011-05-16T14:01:08Z</time>
      </trkpt>
      <trkpt lat="49.19149" lon="1.79639">
        <ele>129.035507</ele>
        <time>2011-05-16T14:01:18Z</time>
      </trkpt>
      <trkpt lat="49.19101" lon="1.79622">
        <ele>127.768753</ele>
        <time>2011-05-16T14:01:28Z</time>
      </trkpt>
      <trkpt lat="49.19052" lon="1.79605">
        <ele>127.611359</ele>
        <time>2011-05-16T14:01:37Z</time>
      </trkpt>
      <trkpt lat="49.19007" lon="1.79589">
        <ele>127.667747</ele>
        <time>2011-05-16T14:01:46Z</time>
      </trkpt>
      <trkpt lat="49.18959" lon="1.79572">
        <ele>128.014999</ele>
        <time>2011-05-16T14:01:55Z</time>
      </trkpt>
      <trkpt lat="49.18915" lon="1.79561">
        <ele>127.882378</ele>
        <time>2011-05-16T14:02:02Z</time>
      </trkpt>
      <trkpt lat="49.18867" lon="1.79559">
        <ele>128</ele>
        <time>2011-05-16T14:02:10Z</time>
      </trkpt>
      <trkpt lat="49.18819" lon="1.79547">
        <ele>128</ele>
        <time>2011-05-16T14:02:20Z</time>
      </trkpt>
      <trkpt lat="49.1877" lon="1.79531">
        <ele>128.17688</ele>
        <time>2011-05-16T14:02:29Z</time>
      </trkpt>
      <trkpt lat="49.18722" lon="1.79517">
        <ele>128.588531</ele>
        <time>2011-05-16T14:02:38Z</time>
      </trkpt>
      <trkpt lat="49.18675" lon="1.79513">
        <ele>129.059845</ele>
        <time>2011-05-16T14:02:48Z</time>
      </trkpt>
      <trkpt lat="49.18627" lon="1.79514">
        <ele>129.674393</ele>
        <time>2011-05-16T14:02:59Z</time>
      </trkpt>
      <trkpt lat="49.18579" lon="1.79516">
        <ele>130.095367</ele>
        <time>2011-05-16T14:03:12Z</time>
      </trkpt>
      <trkpt lat="49.18535" lon="1.79514">
        <ele>130.787506</ele>
        <time>2011-05-16T14:03:28Z</time>
      </trkpt>
      <trkpt lat="49.18487" lon="1.79502">
        <ele>131.665009</ele>
        <time>2011-05-16T14:03:42Z</time>
      </trkpt>
      <trkpt lat="49.18441" lon="1.79481">
        <ele>132.656693</ele>
        <time>2011-05-16T14:03:54Z</time>
      </trkpt>
      <trkpt lat="49.18396" lon="1.79457">
        <ele>133.961533</ele>
        <time>2011-05-16T14:04:08Z</time>
      </trkpt>
      <trkpt lat="49.18352" lon="1.79436">
        <ele>134.740005</ele>
        <time>2011-05-16T14:04:22Z</time>
      </trkpt>
      <trkpt lat="49.18308" lon="1.79416">
        <ele>135.725006</ele>
        <time>2011-05-16T14:04:37Z</time>
      </trkpt>
      <trkpt lat="49.18263" lon="1.79396">
        <ele>136</ele>
        <time>2011-05-16T14:04:54Z</time>
      </trkpt>
      <trkpt lat="49.18217" lon="1.79383">
        <ele>136</ele>
        <time>2011-05-16T14:05:10Z</time>
      </trkpt>
      <trkpt lat="49.18171" lon="1.79378">
        <ele>136</ele>
        <time>2011-05-16T14:05:24Z</time>
      </trkpt>
      <trkpt lat="49.1812" lon="1.79378">
        <ele>136</ele>
        <time>2011-05-16T14:05:35Z</time>
      </trkpt>
      <trkpt lat="49.18071" lon="1.79377">
        <ele>136</ele>
        <time>2011-05-16T14:05:45Z</time>
      </trkpt>
      <trkpt lat="49.18025" lon="1.79364">
        <ele>135.985001</ele>
        <time>2011-05-16T14:05:53Z</time>
      </trkpt>
      <trkpt lat="49.17983" lon="1.79336">
        <ele>135.054993</ele>
        <time>2011-05-16T14:06:03Z</time>
      </trkpt>
      <trkpt lat="49.17937" lon="1.7931">
        <ele>134.024994</ele>
        <time>2011-05-16T14:06:13Z</time>
      </trkpt>
      <trkpt lat="49.17889" lon="1.793">
        <ele>134</ele>
        <time>2011-05-16T14:06:25Z</time>
      </trkpt>
      <trkpt lat="49.17845" lon="1.79291">
        <ele>134</ele>
        <time>2011-05-16T14:06:34Z</time>
      </trkpt>
      <trkpt lat="49.178" lon="1.79282">
        <ele>133.995956</ele>
        <time>2011-05-16T14:06:42Z</time>
      </trkpt>
      <trkpt lat="49.17752" lon="1.79269">
        <ele>133.380402</ele>
        <time>2011-05-16T14:06:51Z</time>
      </trkpt>
      <trkpt lat="49.17705" lon="1.7926">
        <ele>133</ele>
        <time>2011-05-16T14:07:01Z</time>
      </trkpt>
      <trkpt lat="49.17657" lon="1.79251">
        <ele>133</ele>
        <time>2011-05-16T14:07:12Z</time>
      </trkpt>
      <trkpt lat="49.1761" lon="1.79242">
        <ele>133</ele>
        <time>2011-05-16T14:07:22Z</time>
      </trkpt>
      <trkpt lat="49.1756" lon="1.79233">
        <ele>133</ele>
        <time>2011-05-16T14:07:32Z</time>
      </trkpt>
      <trkpt lat="49.17511" lon="1.79225">
        <ele>133</ele>
        <time>2011-05-16T14:07:42Z</time>
      </trkpt>
      <trkpt lat="49.17463" lon="1.79217">
        <ele>133</ele>
        <time>2011-05-16T14:07:50Z</time>
      </trkpt>
      <trkpt lat="49.17418" lon="1.79209">
        <ele>133.243668</ele>
        <time>2011-05-16T14:07:59Z</time>
      </trkpt>
      <trkpt lat="49.17373" lon="1.79203">
        <ele>133.707199</ele>
        <time>2011-05-16T14:08:09Z</time>
      </trkpt>
      <trkpt lat="49.17326" lon="1.792">
        <ele>134</ele>
        <time>2011-05-16T14:08:22Z</time>
      </trkpt>
      <trkpt lat="49.1728" lon="1.79203">
        <ele>134</ele>
        <time>2011-05-16T14:08:34Z</time>
      </trkpt>
      <trkpt lat="49.17234" lon="1.79208">
        <ele>134.264694</ele>
        <time>2011-05-16T14:08:45Z</time>
      </trkpt>
      <trkpt lat="49.17188" lon="1.79214">
        <ele>134.82193</ele>
        <time>2011-05-16T14:08:56Z</time>
      </trkpt>
      <trkpt lat="49.17141" lon="1.79221">
        <ele>135.413574</ele>
        <time>2011-05-16T14:09:08Z</time>
      </trkpt>
      <trkpt lat="49.17093" lon="1.79226">
        <ele>135.920319</ele>
        <time>2011-05-16T14:09:20Z</time>
      </trkpt>
      <trkpt lat="49.17048" lon="1.7923">
        <ele>136.755005</ele>
        <time>2011-05-16T14:09:32Z</time>
      </trkpt>
      <trkpt lat="49.16999" lon="1.79228">
        <ele>137</ele>
        <time>2011-05-16T14:09:44Z</time>
      </trkpt>
      <trkpt lat="49.16954" lon="1.79215">
        <ele>137.845001</ele>
        <time>2011-05-16T14:09:55Z</time>
      </trkpt>
      <trkpt lat="49.1691" lon="1.79198">
        <ele>138</ele>
        <time>2011-05-16T14:10:06Z</time>
      </trkpt>
      <trkpt lat="49.16866" lon="1.79179">
        <ele>138</ele>
        <time>2011-05-16T14:10:18Z</time>
      </trkpt>
      <trkpt lat="49.16823" lon="1.79157">
        <ele>137.720627</ele>
        <time>2011-05-16T14:10:29Z</time>
      </trkpt>
      <trkpt lat="49.16775" lon="1.79139">
        <ele>137.352493</ele>
        <time>2011-05-16T14:10:40Z</time>
      </trkpt>
      <trkpt lat="49.16727" lon="1.79124">
        <ele>137.015152</ele>
        <time>2011-05-16T14:10:51Z</time>
      </trkpt>
      <trkpt lat="49.16681" lon="1.79104">
        <ele>135.936249</ele>
        <time>2011-05-16T14:11:02Z</time>
      </trkpt>
      <trkpt lat="49.16638" lon="1.79075">
        <ele>135.058182</ele>
        <time>2011-05-16T14:11:13Z</time>
      </trkpt>
      <trkpt lat="49.16601" lon="1.79038">
        <ele>134.172501</ele>
        <time>2011-05-16T14:11:23Z</time>
      </trkpt>
      <trkpt lat="49.16566" lon="1.78992">
        <ele>132.741257</ele>
        <time>2011-05-16T14:11:32Z</time>
      </trkpt>
      <trkpt lat="49.16529" lon="1.78947">
        <ele>130.490005</ele>
        <time>2011-05-16T14:11:40Z</time>
      </trkpt>
      <trkpt lat="49.16483" lon="1.78918">
        <ele>126.972504</ele>
        <time>2011-05-16T14:11:47Z</time>
      </trkpt>
      <trkpt lat="49.16435" lon="1.78938">
        <ele>123.155167</ele>
        <time>2011-05-16T14:11:53Z</time>
      </trkpt>
      <trkpt lat="49.16389" lon="1.78964">
        <ele>118.846252</ele>
        <time>2011-05-16T14:12:00Z</time>
      </trkpt>
      <trkpt lat="49.16344" lon="1.78991">
        <ele>113.896996</ele>
        <time>2011-05-16T14:12:07Z</time>
      </trkpt>
      <trkpt lat="49.16302" lon="1.79015">
        <ele>109.874527</ele>
        <time>2011-05-16T14:12:17Z</time>
      </trkpt>
      <trkpt lat="49.16261" lon="1.79057">
        <ele>109.537903</ele>
        <time>2011-05-16T14:12:32Z</time>
      </trkpt>
      <trkpt lat="49.16228" lon="1.79115">
        <ele>109.82634</ele>
        <time>2011-05-16T14:12:41Z</time>
      </trkpt>
      <trkpt lat="49.16193" lon="1.79175">
        <ele>107.037888</ele>
        <time>2011-05-16T14:12:50Z</time>
      </trkpt>
      <trkpt lat="49.16178" lon="1.79243">
        <ele>106.718376</ele>
        <time>2011-05-16T14:13:01Z</time>
      </trkpt>
      <trkpt lat="49.16173" lon="1.79317">
        <ele>107.927498</ele>
        <time>2011-05-16T14:13:11Z</time>
      </trkpt>
      <trkpt lat="49.16168" lon="1.79392">
        <ele>108.814316</ele>
        <time>2011-05-16T14:13:21Z</time>
      </trkpt>
      <trkpt lat="49.16159" lon="1.79463">
        <ele>108.840004</ele>
        <time>2011-05-16T14:13:30Z</time>
      </trkpt>
      <trkpt lat="49.16156" lon="1.79533">
        <ele>109.611252</ele>
        <time>2011-05-16T14:13:42Z</time>
      </trkpt>
      <trkpt lat="49.16163" lon="1.79609">
        <ele>112.331917</ele>
        <time>2011-05-16T14:13:58Z</time>
      </trkpt>
      <trkpt lat="49.16178" lon="1.7968">
        <ele>116.754303</ele>
        <time>2011-05-16T14:14:15Z</time>
      </trkpt>
      <trkpt lat="49.16186" lon="1.79746">
        <ele>119.080002</ele>
        <time>2011-05-16T14:14:28Z</time>
      </trkpt>
      <trkpt lat="49.16191" lon="1.79814">
        <ele>119.753197</ele>
        <time>2011-05-16T14:14:39Z</time>
      </trkpt>
      <trkpt lat="49.16184" lon="1.79879">
        <ele>116.653748</ele>
        <time>2011-05-16T14:14:51Z</time>
      </trkpt>
      <trkpt lat="49.16157" lon="1.79933">
        <ele>111.557503</ele>
        <time>2011-05-16T14:14:59Z</time>
      </trkpt>
      <trkpt lat="49.16132" lon="1.79995">
        <ele>106.72805</ele>
        <time>2011-05-16T14:15:06Z</time>
      </trkpt>
      <trkpt lat="49.16114" lon="1.80058">
        <ele>104.683174</ele>
        <time>2011-05-16T14:15:12Z</time>
      </trkpt>
      <trkpt lat="49.1612" lon="1.80135">
        <ele>104.980003</ele>
        <time>2011-05-16T14:15:19Z</time>
      </trkpt>
      <trkpt lat="49.16135" lon="1.80199">
        <ele>106.459831</ele>
        <time>2011-05-16T14:15:27Z</time>
      </trkpt>
      <trkpt lat="49.1615" lon="1.80258">
        <ele>107.275604</ele>
        <time>2011-05-16T14:15:39Z</time>
      </trkpt>
      <trkpt lat="49.16159" lon="1.80294">
        <ele>107.547501</ele>
        <time>2011-05-16T14:15:53Z</time>
      </trkpt>
      <trkpt lat="49.16168" lon="1.80328">
        <ele>107.547501</ele>
        <time>2011-05-16T14:16:07Z</time>
      </trkpt>
      <trkpt lat="49.16189" lon="1.80373">
        <ele>107.692398</ele>
        <time>2011-05-16T14:16:21Z</time>
      </trkpt>
      <trkpt lat="49.16218" lon="1.80431">
        <ele>105.428398</ele>
        <time>2011-05-16T14:16:30Z</time>
      </trkpt>
      <trkpt lat="49.16262" lon="1.80463">
        <ele>103.637497</ele>
        <time>2011-05-16T14:16:39Z</time>
      </trkpt>
      <trkpt lat="49.16306" lon="1.80484">
        <ele>102.95369</ele>
        <time>2011-05-16T14:16:50Z</time>
      </trkpt>
      <trkpt lat="49.16349" lon="1.80516">
        <ele>102.512321</ele>
        <time>2011-05-16T14:17:02Z</time>
      </trkpt>
      <trkpt lat="49.16385" lon="1.80557">
        <ele>100.235138</ele>
        <time>2011-05-16T14:17:12Z</time>
      </trkpt>
      <trkpt lat="49.1642" lon="1.8061">
        <ele>99.542191</ele>
        <time>2011-05-16T14:17:20Z</time>
      </trkpt>
      <trkpt lat="49.16454" lon="1.80658">
        <ele>99.074005</ele>
        <time>2011-05-16T14:17:29Z</time>
      </trkpt>
      <trkpt lat="49.1649" lon="1.80702">
        <ele>97.250786</ele>
        <time>2011-05-16T14:17:41Z</time>
      </trkpt>
      <trkpt lat="49.16525" lon="1.80751">
        <ele>94.041252</ele>
        <time>2011-05-16T14:17:54Z</time>
      </trkpt>
      <trkpt lat="49.16563" lon="1.80793">
        <ele>96.319061</ele>
        <time>2011-05-16T14:18:07Z</time>
      </trkpt>
      <trkpt lat="49.1658" lon="1.80829">
        <ele>98.675003</ele>
        <time>2011-05-16T14:18:24Z</time>
      </trkpt>
      <trkpt lat="49.16533" lon="1.80836">
        <ele>98.582497</ele>
        <time>2011-05-16T14:18:37Z</time>
      </trkpt>
      <trkpt lat="49.16486" lon="1.80845">
        <ele>98.893211</ele>
        <time>2011-05-16T14:18:49Z</time>
      </trkpt>
      <trkpt lat="49.16439" lon="1.80833">
        <ele>96.753754</ele>
        <time>2011-05-16T14:18:59Z</time>
      </trkpt>
      <trkpt lat="49.16395" lon="1.80811">
        <ele>95.897011</ele>
        <time>2011-05-16T14:19:10Z</time>
      </trkpt>
      <trkpt lat="49.16353" lon="1.80773">
        <ele>91.816101</ele>
        <time>2011-05-16T14:27:06Z</time>
      </trkpt>
      <trkpt lat="49.16319" lon="1.80773">
        <ele>92.546753</ele>
        <time>2011-05-16T14:27:20Z</time>
      </trkpt>
      <trkpt lat="49.16281" lon="1.80814">
        <ele>97.554001</ele>
        <time>2011-05-16T14:27:37Z</time>
      </trkpt>
      <trkpt lat="49.16266" lon="1.80873">
        <ele>102.07283</ele>
        <time>2011-05-16T14:28:02Z</time>
      </trkpt>
      <trkpt lat="49.16257" lon="1.8094">
        <ele>103.888748</ele>
        <time>2011-05-16T14:28:29Z</time>
      </trkpt>
      <trkpt lat="49.1625" lon="1.81011">
        <ele>102.542336</ele>
        <time>2011-05-16T14:28:41Z</time>
      </trkpt>
      <trkpt lat="49.16253" lon="1.81087">
        <ele>100.57235</ele>
        <time>2011-05-16T14:28:50Z</time>
      </trkpt>
      <trkpt lat="49.16266" lon="1.81158">
        <ele>98.555</ele>
        <time>2011-05-16T14:28:58Z</time>
      </trkpt>
      <trkpt lat="49.16289" lon="1.81219">
        <ele>97.743965</ele>
        <time>2011-05-16T14:29:06Z</time>
      </trkpt>
      <trkpt lat="49.16311" lon="1.81282">
        <ele>96.315002</ele>
        <time>2011-05-16T14:29:18Z</time>
      </trkpt>
      <trkpt lat="49.16327" lon="1.81352">
        <ele>93.014221</ele>
        <time>2011-05-16T14:29:29Z</time>
      </trkpt>
      <trkpt lat="49.16346" lon="1.81411">
        <ele>90.64566</ele>
        <time>2011-05-16T14:29:51Z</time>
      </trkpt>
      <trkpt lat="49.16373" lon="1.81471">
        <ele>89.377502</ele>
        <time>2011-05-16T14:29:59Z</time>
      </trkpt>
      <trkpt lat="49.16398" lon="1.81527">
        <ele>90.308105</ele>
        <time>2011-05-16T14:30:08Z</time>
      </trkpt>
      <trkpt lat="49.16415" lon="1.81593">
        <ele>92.574997</ele>
        <time>2011-05-16T14:30:20Z</time>
      </trkpt>
      <trkpt lat="49.1643" lon="1.81658">
        <ele>94.123123</ele>
        <time>2011-05-16T14:30:33Z</time>
      </trkpt>
      <trkpt lat="49.16444" lon="1.81725">
        <ele>94.335609</ele>
        <time>2011-05-16T14:30:43Z</time>
      </trkpt>
      <trkpt lat="49.16453" lon="1.81796">
        <ele>93.778404</ele>
        <time>2011-05-16T14:30:55Z</time>
      </trkpt>
      <trkpt lat="49.16457" lon="1.81869">
        <ele>94.191254</ele>
        <time>2011-05-16T14:31:08Z</time>
      </trkpt>
      <trkpt lat="49.16456" lon="1.81939">
        <ele>94.889999</ele>
        <time>2011-05-16T14:31:25Z</time>
      </trkpt>
      <trkpt lat="49.16443" lon="1.82008">
        <ele>92.805939</ele>
        <time>2011-05-16T14:31:39Z</time>
      </trkpt>
      <trkpt lat="49.16452" lon="1.82077">
        <ele>91.637436</ele>
        <time>2011-05-16T14:31:49Z</time>
      </trkpt>
      <trkpt lat="49.1648" lon="1.82134">
        <ele>90.349861</ele>
        <time>2011-05-16T14:31:56Z</time>
      </trkpt>
      <trkpt lat="49.16517" lon="1.82178">
        <ele>89.186401</ele>
        <time>2011-05-16T14:32:04Z</time>
      </trkpt>
      <trkpt lat="49.16538" lon="1.82237">
        <ele>86.051498</ele>
        <time>2011-05-16T14:32:15Z</time>
      </trkpt>
      <trkpt lat="49.1651" lon="1.82314">
        <ele>87.971375</ele>
        <time>2011-05-16T14:32:56Z</time>
      </trkpt>
      <trkpt lat="49.16467" lon="1.82327">
        <ele>90.912468</ele>
        <time>2011-05-16T14:33:22Z</time>
      </trkpt>
      <trkpt lat="49.164" lon="1.82383">
        <ele>89.737564</ele>
        <time>2011-05-16T14:33:56Z</time>
      </trkpt>
      <trkpt lat="49.1634" lon="1.8251">
        <ele>91.144783</ele>
        <time>2011-05-16T14:43:09Z</time>
      </trkpt>
      <trkpt lat="49.16311" lon="1.82637">
        <ele>92.199997</ele>
        <time>2011-05-16T14:43:21Z</time>
      </trkpt>
      <trkpt lat="49.16344" lon="1.82784">
        <ele>96.022499</ele>
        <time>2011-05-16T14:43:32Z</time>
      </trkpt>
      <trkpt lat="49.16391" lon="1.82907">
        <ele>103.256592</ele>
        <time>2011-05-16T14:43:42Z</time>
      </trkpt>
      <trkpt lat="49.16404" lon="1.83001">
        <ele>105.222</ele>
        <time>2011-05-16T14:43:50Z</time>
      </trkpt>
      <trkpt lat="49.16391" lon="1.83077">
        <ele>102.205002</ele>
        <time>2011-05-16T14:43:59Z</time>
      </trkpt>
      <trkpt lat="49.16375" lon="1.83155">
        <ele>100.079453</ele>
        <time>2011-05-16T14:44:07Z</time>
      </trkpt>
      <trkpt lat="49.16393" lon="1.83224">
        <ele>99.927635</ele>
        <time>2011-05-16T14:44:18Z</time>
      </trkpt>
      <trkpt lat="49.1642" lon="1.83304">
        <ele>93.890778</ele>
        <time>2011-05-16T14:44:32Z</time>
      </trkpt>
      <trkpt lat="49.16377" lon="1.83366">
        <ele>98.013374</ele>
        <time>2011-05-16T14:45:13Z</time>
      </trkpt>
      <trkpt lat="49.16328" lon="1.83356">
        <ele>96.012657</ele>
        <time>2011-05-16T14:46:08Z</time>
      </trkpt>
      <trkpt lat="49.16358" lon="1.8343">
        <ele>106.317902</ele>
        <time>2011-05-16T14:47:13Z</time>
      </trkpt>
      <trkpt lat="49.16383" lon="1.83493">
        <ele>110.745201</ele>
        <time>2011-05-16T14:47:36Z</time>
      </trkpt>
      <trkpt lat="49.16406" lon="1.83558">
        <ele>112.108452</ele>
        <time>2011-05-16T14:47:56Z</time>
      </trkpt>
      <trkpt lat="49.16427" lon="1.83629">
        <ele>111.482185</ele>
        <time>2011-05-16T14:48:17Z</time>
      </trkpt>
      <trkpt lat="49.16477" lon="1.83679">
        <ele>112.529549</ele>
        <time>2011-05-16T14:48:35Z</time>
      </trkpt>
      <trkpt lat="49.16535" lon="1.83738">
        <ele>114.113976</ele>
        <time>2011-05-16T14:48:58Z</time>
      </trkpt>
      <trkpt lat="49.16597" lon="1.83798">
        <ele>115.364098</ele>
        <time>2011-05-16T14:49:29Z</time>
      </trkpt>
      <trkpt lat="49.16654" lon="1.83859">
        <ele>116.633018</ele>
        <time>2011-05-16T14:49:57Z</time>
      </trkpt>
      <trkpt lat="49.16716" lon="1.83898">
        <ele>118.93969</ele>
        <time>2011-05-16T14:50:21Z</time>
      </trkpt>
      <trkpt lat="49.16771" lon="1.83977">
        <ele>120.280952</ele>
        <time>2011-05-16T14:50:43Z</time>
      </trkpt>
      <trkpt lat="49.16825" lon="1.84053">
        <ele>120.707359</ele>
        <time>2011-05-16T14:51:07Z</time>
      </trkpt>
      <trkpt lat="49.16875" lon="1.84098">
        <ele>121.178749</ele>
        <time>2011-05-16T14:51:27Z</time>
      </trkpt>
      <trkpt lat="49.16869" lon="1.84102">
        <ele>120.997498</ele>
        <time>2011-05-16T14:52:40Z</time>
      </trkpt>
      <trkpt lat="49.16831" lon="1.8407">
        <ele>120.610298</ele>
        <time>2011-05-16T14:53:06Z</time>
      </trkpt>
      <trkpt lat="49.16813" lon="1.8404">
        <ele>120.612305</ele>
        <time>2011-05-16T14:53:45Z</time>
      </trkpt>
      <trkpt lat="49.16866" lon="1.84089">
        <ele>121.102501</ele>
        <time>2011-05-16T14:54:06Z</time>
      </trkpt>
      <trkpt lat="49.1691" lon="1.84166">
        <ele>120.963753</ele>
        <time>2011-05-16T14:54:29Z</time>
      </trkpt>
      <trkpt lat="49.16952" lon="1.84222">
        <ele>120.789673</ele>
        <time>2011-05-16T14:54:42Z</time>
      </trkpt>
      <trkpt lat="49.1701" lon="1.84293">
        <ele>120.947403</ele>
        <time>2011-05-16T14:55:01Z</time>
      </trkpt>
      <trkpt lat="49.17062" lon="1.84346">
        <ele>121.955093</ele>
        <time>2011-05-16T14:55:20Z</time>
      </trkpt>
      <trkpt lat="49.1703" lon="1.84373">
        <ele>121.349998</ele>
        <time>2011-05-16T14:55:33Z</time>
      </trkpt>
      <trkpt lat="49.1698" lon="1.84406">
        <ele>119.279549</ele>
        <time>2011-05-16T14:55:41Z</time>
      </trkpt>
      <trkpt lat="49.16931" lon="1.84432">
        <ele>115.227722</ele>
        <time>2011-05-16T14:55:48Z</time>
      </trkpt>
      <trkpt lat="49.16879" lon="1.84456">
        <ele>110.966415</ele>
        <time>2011-05-16T14:55:54Z</time>
      </trkpt>
      <trkpt lat="49.16847" lon="1.8452">
        <ele>108.422485</ele>
        <time>2011-05-16T14:56:00Z</time>
      </trkpt>
      <trkpt lat="49.16815" lon="1.84572">
        <ele>108.5158</ele>
        <time>2011-05-16T14:56:06Z</time>
      </trkpt>
      <trkpt lat="49.16778" lon="1.84625">
        <ele>109.698753</ele>
        <time>2011-05-16T14:56:16Z</time>
      </trkpt>
      <trkpt lat="49.16749" lon="1.84628">
        <ele>110.391251</ele>
        <time>2011-05-16T14:56:29Z</time>
      </trkpt>
      <trkpt lat="49.16719" lon="1.84634">
        <ele>111.141251</ele>
        <time>2011-05-16T14:56:45Z</time>
      </trkpt>
      <trkpt lat="49.16705" lon="1.84637">
        <ele>111.516251</ele>
        <time>2011-05-16T14:57:17Z</time>
      </trkpt>
      <trkpt lat="49.16688" lon="1.84639">
        <ele>111.626251</ele>
        <time>2011-05-16T14:57:32Z</time>
      </trkpt>
      <trkpt lat="49.1667" lon="1.84641">
        <ele>111.651253</ele>
        <time>2011-05-16T14:57:51Z</time>
      </trkpt>
      <trkpt lat="49.16651" lon="1.84645">
        <ele>111.701248</ele>
        <time>2011-05-16T14:58:04Z</time>
      </trkpt>
      <trkpt lat="49.16636" lon="1.84652">
        <ele>111.802498</ele>
        <time>2011-05-16T14:58:18Z</time>
      </trkpt>
      <trkpt lat="49.1659" lon="1.84674">
        <ele>111.106407</ele>
        <time>2011-05-16T14:58:29Z</time>
      </trkpt>
      <trkpt lat="49.16551" lon="1.84726">
        <ele>108.936249</ele>
        <time>2011-05-16T14:58:40Z</time>
      </trkpt>
      <trkpt lat="49.16521" lon="1.84786">
        <ele>104.925179</ele>
        <time>2011-05-16T14:58:47Z</time>
      </trkpt>
      <trkpt lat="49.16504" lon="1.84861">
        <ele>101.263176</ele>
        <time>2011-05-16T14:58:53Z</time>
      </trkpt>
      <trkpt lat="49.16498" lon="1.84931">
        <ele>99.825546</ele>
        <time>2011-05-16T14:58:59Z</time>
      </trkpt>
      <trkpt lat="49.16497" lon="1.84999">
        <ele>100.142441</ele>
        <time>2011-05-16T14:59:06Z</time>
      </trkpt>
      <trkpt lat="49.16485" lon="1.85065">
        <ele>99.339073</ele>
        <time>2011-05-16T14:59:13Z</time>
      </trkpt>
      <trkpt lat="49.16448" lon="1.85078">
        <ele>98.335411</ele>
        <time>2011-05-16T14:59:23Z</time>
      </trkpt>
      <trkpt lat="49.16448" lon="1.85097">
        <ele>98.426163</ele>
        <time>2011-05-16T14:59:42Z</time>
      </trkpt>
      <trkpt lat="49.16462" lon="1.85156">
        <ele>98.78125</ele>
        <time>2011-05-16T14:59:57Z</time>
      </trkpt>
      <trkpt lat="49.16455" lon="1.85223">
        <ele>101.637505</ele>
        <time>2011-05-16T15:00:12Z</time>
      </trkpt>
      <trkpt lat="49.16426" lon="1.85282">
        <ele>103.516426</ele>
        <time>2011-05-16T15:00:29Z</time>
      </trkpt>
      <trkpt lat="49.1639" lon="1.85326">
        <ele>105.345497</ele>
        <time>2011-05-16T15:00:48Z</time>
      </trkpt>
      <trkpt lat="49.16348" lon="1.85356">
        <ele>106.873749</ele>
        <time>2011-05-16T15:01:07Z</time>
      </trkpt>
      <trkpt lat="49.16304" lon="1.85374">
        <ele>109.063751</ele>
        <time>2011-05-16T15:01:28Z</time>
      </trkpt>
      <trkpt lat="49.16261" lon="1.85372">
        <ele>111.629593</ele>
        <time>2011-05-16T15:01:47Z</time>
      </trkpt>
      <trkpt lat="49.16215" lon="1.85343">
        <ele>113.919998</ele>
        <time>2011-05-16T15:02:08Z</time>
      </trkpt>
      <trkpt lat="49.16169" lon="1.85323">
        <ele>115.831291</ele>
        <time>2011-05-16T15:02:27Z</time>
      </trkpt>
      <trkpt lat="49.16128" lon="1.85293">
        <ele>116</ele>
        <time>2011-05-16T15:02:41Z</time>
      </trkpt>
      <trkpt lat="49.16087" lon="1.85257">
        <ele>114.146248</ele>
        <time>2011-05-16T15:02:50Z</time>
      </trkpt>
      <trkpt lat="49.16051" lon="1.85216">
        <ele>112.387497</ele>
        <time>2011-05-16T15:02:59Z</time>
      </trkpt>
      <trkpt lat="49.16006" lon="1.8522">
        <ele>111.5075</ele>
        <time>2011-05-16T15:03:12Z</time>
      </trkpt>
      <trkpt lat="49.15967" lon="1.85252">
        <ele>111.856247</ele>
        <time>2011-05-16T15:03:24Z</time>
      </trkpt>
      <trkpt lat="49.15932" lon="1.85302">
        <ele>113.034126</ele>
        <time>2011-05-16T15:03:37Z</time>
      </trkpt>
      <trkpt lat="49.15898" lon="1.85347">
        <ele>113.78315</ele>
        <time>2011-05-16T15:03:49Z</time>
      </trkpt>
      <trkpt lat="49.15862" lon="1.85398">
        <ele>115.306252</ele>
        <time>2011-05-16T15:04:05Z</time>
      </trkpt>
      <trkpt lat="49.15827" lon="1.8544">
        <ele>116.727501</ele>
        <time>2011-05-16T15:04:20Z</time>
      </trkpt>
      <trkpt lat="49.15783" lon="1.85477">
        <ele>118.731247</ele>
        <time>2011-05-16T15:04:34Z</time>
      </trkpt>
      <trkpt lat="49.15778" lon="1.85544">
        <ele>119.507896</ele>
        <time>2011-05-16T15:04:46Z</time>
      </trkpt>
      <trkpt lat="49.15777" lon="1.85616">
        <ele>120.396248</ele>
        <time>2011-05-16T15:04:57Z</time>
      </trkpt>
      <trkpt lat="49.15785" lon="1.85686">
        <ele>120.480003</ele>
        <time>2011-05-16T15:05:08Z</time>
      </trkpt>
      <trkpt lat="49.15798" lon="1.85752">
        <ele>119.459999</ele>
        <time>2011-05-16T15:05:19Z</time>
      </trkpt>
      <trkpt lat="49.15808" lon="1.85825">
        <ele>118.970001</ele>
        <time>2011-05-16T15:05:28Z</time>
      </trkpt>
      <trkpt lat="49.15821" lon="1.85902">
        <ele>117.7575</ele>
        <time>2011-05-16T15:05:35Z</time>
      </trkpt>
      <trkpt lat="49.15817" lon="1.85975">
        <ele>117.783035</ele>
        <time>2011-05-16T15:05:42Z</time>
      </trkpt>
      <trkpt lat="49.15809" lon="1.86048">
        <ele>117</ele>
        <time>2011-05-16T15:05:51Z</time>
      </trkpt>
      <trkpt lat="49.15803" lon="1.8612">
        <ele>117</ele>
        <time>2011-05-16T15:06:01Z</time>
      </trkpt>
      <trkpt lat="49.158" lon="1.86195">
        <ele>117</ele>
        <time>2011-05-16T15:06:13Z</time>
      </trkpt>
      <trkpt lat="49.15814" lon="1.8627">
        <ele>117.317497</ele>
        <time>2011-05-16T15:06:24Z</time>
      </trkpt>
      <trkpt lat="49.15836" lon="1.86337">
        <ele>118</ele>
        <time>2011-05-16T15:06:35Z</time>
      </trkpt>
      <trkpt lat="49.15859" lon="1.86404">
        <ele>118</ele>
        <time>2011-05-16T15:06:47Z</time>
      </trkpt>
      <trkpt lat="49.15882" lon="1.86468">
        <ele>118.08374</ele>
        <time>2011-05-16T15:06:57Z</time>
      </trkpt>
      <trkpt lat="49.15901" lon="1.86533">
        <ele>117.994225</ele>
        <time>2011-05-16T15:07:07Z</time>
      </trkpt>
      <trkpt lat="49.15914" lon="1.86603">
        <ele>117.675003</ele>
        <time>2011-05-16T15:07:15Z</time>
      </trkpt>
      <trkpt lat="49.1593" lon="1.86672">
        <ele>117.142502</ele>
        <time>2011-05-16T15:07:23Z</time>
      </trkpt>
      <trkpt lat="49.15958" lon="1.86726">
        <ele>115.723747</ele>
        <time>2011-05-16T15:07:31Z</time>
      </trkpt>
      <trkpt lat="49.15984" lon="1.86784">
        <ele>115.139999</ele>
        <time>2011-05-16T15:07:39Z</time>
      </trkpt>
      <trkpt lat="49.15993" lon="1.86862">
        <ele>114.959999</ele>
        <time>2011-05-16T15:07:47Z</time>
      </trkpt>
      <trkpt lat="49.15998" lon="1.86936">
        <ele>114.839996</ele>
        <time>2011-05-16T15:07:57Z</time>
      </trkpt>
      <trkpt lat="49.16005" lon="1.87004">
        <ele>114.664124</ele>
        <time>2011-05-16T15:08:08Z</time>
      </trkpt>
      <trkpt lat="49.16013" lon="1.87078">
        <ele>114.068901</ele>
        <time>2011-05-16T15:08:17Z</time>
      </trkpt>
      <trkpt lat="49.1602" lon="1.87148">
        <ele>114.4645</ele>
        <time>2011-05-16T15:08:26Z</time>
      </trkpt>
      <trkpt lat="49.1603" lon="1.87219">
        <ele>115</ele>
        <time>2011-05-16T15:08:36Z</time>
      </trkpt>
      <trkpt lat="49.16044" lon="1.87287">
        <ele>115</ele>
        <time>2011-05-16T15:08:49Z</time>
      </trkpt>
      <trkpt lat="49.16057" lon="1.87357">
        <ele>115</ele>
        <time>2011-05-16T15:08:59Z</time>
      </trkpt>
      <trkpt lat="49.16074" lon="1.87424">
        <ele>115.196251</ele>
        <time>2011-05-16T15:09:12Z</time>
      </trkpt>
      <trkpt lat="49.16092" lon="1.8749">
        <ele>116</ele>
        <time>2011-05-16T15:09:25Z</time>
      </trkpt>
      <trkpt lat="49.16111" lon="1.87554">
        <ele>116.09375</ele>
        <time>2011-05-16T15:09:37Z</time>
      </trkpt>
      <trkpt lat="49.16128" lon="1.87618">
        <ele>117.032501</ele>
        <time>2011-05-16T15:09:51Z</time>
      </trkpt>
      <trkpt lat="49.16142" lon="1.87685">
        <ele>117.709793</ele>
        <time>2011-05-16T15:10:07Z</time>
      </trkpt>
      <trkpt lat="49.16154" lon="1.87757">
        <ele>118.059998</ele>
        <time>2011-05-16T15:10:20Z</time>
      </trkpt>
      <trkpt lat="49.16159" lon="1.87829">
        <ele>119.038383</ele>
        <time>2011-05-16T15:10:30Z</time>
      </trkpt>
      <trkpt lat="49.1616" lon="1.87899">
        <ele>119.410103</ele>
        <time>2011-05-16T15:10:43Z</time>
      </trkpt>
      <trkpt lat="49.16156" lon="1.87972">
        <ele>120</ele>
        <time>2011-05-16T15:10:53Z</time>
      </trkpt>
      <trkpt lat="49.1615" lon="1.88037">
        <ele>120</ele>
        <time>2011-05-16T15:11:06Z</time>
      </trkpt>
      <trkpt lat="49.16146" lon="1.88111">
        <ele>120</ele>
        <time>2011-05-16T15:11:17Z</time>
      </trkpt>
      <trkpt lat="49.16143" lon="1.88185">
        <ele>120</ele>
        <time>2011-05-16T15:11:28Z</time>
      </trkpt>
      <trkpt lat="49.16141" lon="1.88258">
        <ele>120</ele>
        <time>2011-05-16T15:11:39Z</time>
      </trkpt>
      <trkpt lat="49.16159" lon="1.88325">
        <ele>119.641251</ele>
        <time>2011-05-16T15:12:36Z</time>
      </trkpt>
      <trkpt lat="49.16175" lon="1.8839">
        <ele>119</ele>
        <time>2011-05-16T15:12:47Z</time>
      </trkpt>
      <trkpt lat="49.16191" lon="1.88456">
        <ele>119</ele>
        <time>2011-05-16T15:12:57Z</time>
      </trkpt>
      <trkpt lat="49.16208" lon="1.88525">
        <ele>118.807503</ele>
        <time>2011-05-16T15:13:09Z</time>
      </trkpt>
      <trkpt lat="49.16226" lon="1.88596">
        <ele>118</ele>
        <time>2011-05-16T15:13:18Z</time>
      </trkpt>
      <trkpt lat="49.16241" lon="1.88662">
        <ele>118</ele>
        <time>2011-05-16T15:13:26Z</time>
      </trkpt>
      <trkpt lat="49.16254" lon="1.88727">
        <ele>117.7575</ele>
        <time>2011-05-16T15:13:37Z</time>
      </trkpt>
      <trkpt lat="49.1626" lon="1.88799">
        <ele>117</ele>
        <time>2011-05-16T15:13:52Z</time>
      </trkpt>
      <trkpt lat="49.16267" lon="1.8887">
        <ele>117</ele>
        <time>2011-05-16T15:14:03Z</time>
      </trkpt>
      <trkpt lat="49.16277" lon="1.88938">
        <ele>116.681252</ele>
        <time>2011-05-16T15:14:12Z</time>
      </trkpt>
      <trkpt lat="49.16292" lon="1.89006">
        <ele>116</ele>
        <time>2011-05-16T15:14:22Z</time>
      </trkpt>
      <trkpt lat="49.16312" lon="1.89071">
        <ele>116</ele>
        <time>2011-05-16T15:14:30Z</time>
      </trkpt>
      <trkpt lat="49.16333" lon="1.89141">
        <ele>115.403275</ele>
        <time>2011-05-16T15:14:37Z</time>
      </trkpt>
      <trkpt lat="49.16346" lon="1.8921">
        <ele>114.702499</ele>
        <time>2011-05-16T15:14:44Z</time>
      </trkpt>
      <trkpt lat="49.16352" lon="1.8928">
        <ele>113.676247</ele>
        <time>2011-05-16T15:14:51Z</time>
      </trkpt>
      <trkpt lat="49.16359" lon="1.89356">
        <ele>112.571251</ele>
        <time>2011-05-16T15:14:59Z</time>
      </trkpt>
      <trkpt lat="49.16369" lon="1.89424">
        <ele>111.237015</ele>
        <time>2011-05-16T15:15:06Z</time>
      </trkpt>
      <trkpt lat="49.16377" lon="1.89497">
        <ele>110.195869</ele>
        <time>2011-05-16T15:15:12Z</time>
      </trkpt>
      <trkpt lat="49.16385" lon="1.89572">
        <ele>110</ele>
        <time>2011-05-16T15:15:18Z</time>
      </trkpt>
      <trkpt lat="49.16391" lon="1.89651">
        <ele>109.264999</ele>
        <time>2011-05-16T15:15:25Z</time>
      </trkpt>
      <trkpt lat="49.16394" lon="1.89722">
        <ele>109</ele>
        <time>2011-05-16T15:15:32Z</time>
      </trkpt>
      <trkpt lat="49.16397" lon="1.89791">
        <ele>109</ele>
        <time>2011-05-16T15:15:40Z</time>
      </trkpt>
      <trkpt lat="49.16399" lon="1.89861">
        <ele>108.191254</ele>
        <time>2011-05-16T15:15:50Z</time>
      </trkpt>
      <trkpt lat="49.16397" lon="1.89935">
        <ele>108</ele>
        <time>2011-05-16T15:16:00Z</time>
      </trkpt>
      <trkpt lat="49.16396" lon="1.9001">
        <ele>107.012497</ele>
        <time>2011-05-16T15:16:08Z</time>
      </trkpt>
      <trkpt lat="49.16399" lon="1.90085">
        <ele>106.927498</ele>
        <time>2011-05-16T15:16:15Z</time>
      </trkpt>
      <trkpt lat="49.16404" lon="1.90156">
        <ele>105.900024</ele>
        <time>2011-05-16T15:16:21Z</time>
      </trkpt>
      <trkpt lat="49.16411" lon="1.90231">
        <ele>105.063499</ele>
        <time>2011-05-16T15:16:28Z</time>
      </trkpt>
      <trkpt lat="49.16422" lon="1.90307">
        <ele>104.778625</ele>
        <time>2011-05-16T15:16:36Z</time>
      </trkpt>
      <trkpt lat="49.16426" lon="1.90376">
        <ele>104.256989</ele>
        <time>2011-05-16T15:16:44Z</time>
      </trkpt>
      <trkpt lat="49.16422" lon="1.90451">
        <ele>104</ele>
        <time>2011-05-16T15:16:52Z</time>
      </trkpt>
      <trkpt lat="49.1643" lon="1.9052">
        <ele>103.566254</ele>
        <time>2011-05-16T15:16:59Z</time>
      </trkpt>
      <trkpt lat="49.16437" lon="1.90592">
        <ele>102.517502</ele>
        <time>2011-05-16T15:17:07Z</time>
      </trkpt>
      <trkpt lat="49.16439" lon="1.90663">
        <ele>101.816689</ele>
        <time>2011-05-16T15:17:14Z</time>
      </trkpt>
      <trkpt lat="49.16427" lon="1.90733">
        <ele>100.858749</ele>
        <time>2011-05-16T15:17:20Z</time>
      </trkpt>
      <trkpt lat="49.16408" lon="1.90801">
        <ele>100.018547</ele>
        <time>2011-05-16T15:17:27Z</time>
      </trkpt>
      <trkpt lat="49.16388" lon="1.90867">
        <ele>99.747009</ele>
        <time>2011-05-16T15:17:36Z</time>
      </trkpt>
      <trkpt lat="49.16385" lon="1.90878">
        <ele>99.710747</ele>
        <time>2011-05-16T15:17:50Z</time>
      </trkpt>
      <trkpt lat="49.16383" lon="1.90887">
        <ele>99.688934</ele>
        <time>2011-05-16T15:18:27Z</time>
      </trkpt>
      <trkpt lat="49.16378" lon="1.90903">
        <ele>99.705002</ele>
        <time>2011-05-16T15:18:46Z</time>
      </trkpt>
      <trkpt lat="49.16375" lon="1.90919">
        <ele>99.779999</ele>
        <time>2011-05-16T15:21:29Z</time>
      </trkpt>
      <trkpt lat="49.16365" lon="1.90961">
        <ele>100.010002</ele>
        <time>2011-05-16T15:22:03Z</time>
      </trkpt>
      <trkpt lat="49.16356" lon="1.91003">
        <ele>100.320778</ele>
        <time>2011-05-16T15:22:16Z</time>
      </trkpt>
      <trkpt lat="49.16342" lon="1.91071">
        <ele>100.535004</ele>
        <time>2011-05-16T15:22:27Z</time>
      </trkpt>
      <trkpt lat="49.1633" lon="1.91141">
        <ele>100.326248</ele>
        <time>2011-05-16T15:22:39Z</time>
      </trkpt>
      <trkpt lat="49.16315" lon="1.9121">
        <ele>100.144997</ele>
        <time>2011-05-16T15:22:51Z</time>
      </trkpt>
      <trkpt lat="49.16298" lon="1.91278">
        <ele>100.525002</ele>
        <time>2011-05-16T15:23:01Z</time>
      </trkpt>
      <trkpt lat="49.16283" lon="1.91347">
        <ele>100.386253</ele>
        <time>2011-05-16T15:23:10Z</time>
      </trkpt>
      <trkpt lat="49.16276" lon="1.91414">
        <ele>100.019997</ele>
        <time>2011-05-16T15:23:22Z</time>
      </trkpt>
      <trkpt lat="49.16269" lon="1.91484">
        <ele>100.099693</ele>
        <time>2011-05-16T15:23:33Z</time>
      </trkpt>
      <trkpt lat="49.16259" lon="1.91556">
        <ele>99.462502</ele>
        <time>2011-05-16T15:23:41Z</time>
      </trkpt>
      <trkpt lat="49.16235" lon="1.91623">
        <ele>98.491249</ele>
        <time>2011-05-16T15:23:50Z</time>
      </trkpt>
      <trkpt lat="49.16204" lon="1.91688">
        <ele>98.209999</ele>
        <time>2011-05-16T15:23:58Z</time>
      </trkpt>
      <trkpt lat="49.16177" lon="1.91747">
        <ele>97.688751</ele>
        <time>2011-05-16T15:24:06Z</time>
      </trkpt>
      <trkpt lat="49.16156" lon="1.91812">
        <ele>96.743752</ele>
        <time>2011-05-16T15:24:15Z</time>
      </trkpt>
      <trkpt lat="49.1615" lon="1.91878">
        <ele>95.777496</ele>
        <time>2011-05-16T15:24:24Z</time>
      </trkpt>
      <trkpt lat="49.16166" lon="1.91948">
        <ele>95</ele>
        <time>2011-05-16T15:24:34Z</time>
      </trkpt>
      <trkpt lat="49.16172" lon="1.91978">
        <ele>95</ele>
        <time>2011-05-16T15:24:45Z</time>
      </trkpt>
      <trkpt lat="49.16298" lon="1.91973">
        <ele>97.051247</ele>
        <time>2011-05-16T15:27:41Z</time>
      </trkpt>
      <trkpt lat="49.16438" lon="1.91986">
        <ele>99.268295</ele>
        <time>2011-05-16T15:27:54Z</time>
      </trkpt>
      <trkpt lat="49.16464" lon="1.92056">
        <ele>100.944885</ele>
      </trkpt>
      <trkpt lat="49.1659" lon="1.92099">
        <ele>103.45636</ele>
      </trkpt>
      <trkpt lat="49.16794" lon="1.92404">
        <ele>106.98967</ele>
      </trkpt>
      <trkpt lat="49.16841" lon="1.92602">
        <ele>106.123749</ele>
      </trkpt>
      <trkpt lat="49.16869" lon="1.93143">
        <ele>85.581909</ele>
        <time>2011-05-16T15:28:36Z</time>
      </trkpt>
    </trkseg>
  </trk>
</gpx>